Time,TemperatureF,DewpointF,PressureIn,WindDirection,WindDirectionDegrees,WindSpeedMPH,WindSpeedGustMPH,Humidity,HourlyPrecipIn,Conditions,Clouds,dailyrainin,SoftwareType,DateUTC
2013-06-27 00:02:00,71.1,69.6,30.00,ESE,123,0.0,0.0,95,0.00,,,0.00,Wunderground v.1.15,2013-06-27 04:02:00,
2013-06-27 00:03:00,71.1,69.6,30.00,ESE,123,0.0,0.0,95,0.00,,,0.00,Wunderground v.1.15,2013-06-27 04:03:00,
2013-06-27 00:05:00,71.1,69.9,30.00,ESE,122,0.0,0.0,96,0.00,,,0.00,Wunderground v.1.15,2013-06-27 04:05:00,
2013-06-27 00:07:00,71.1,69.9,30.00,ESE,123,0.0,0.0,96,0.00,,,0.00,Wunderground v.1.15,2013-06-27 04:07:00,
2013-06-27 00:08:00,71.1,69.9,30.00,ESE,123,0.0,0.0,96,0.00,,,0.00,Wunderground v.1.15,2013-06-27 04:08:00,
2013-06-27 00:09:00,71.1,69.9,30.00,ESE,123,0.0,0.0,96,0.00,,,0.00,Wunderground v.1.15,2013-06-27 04:09:00,
2013-06-27 00:15:00,71.2,70.0,30.01,ESE,122,0.0,0.0,96,0.00,,,0.00,Wunderground v.1.15,2013-06-27 04:15:00,
2013-06-27 00:16:00,71.2,70.0,30.01,ESE,122,0.0,0.0,96,0.00,,,0.00,Wunderground v.1.15,2013-06-27 04:16:00,
2013-06-27 00:20:00,71.3,70.1,30.01,ESE,122,0.0,0.0,96,0.00,,,0.00,Wunderground v.1.15,2013-06-27 04:20:00,
2013-06-27 00:21:00,71.3,70.1,30.01,ESE,123,0.0,0.0,96,0.00,,,0.00,Wunderground v.1.15,2013-06-27 04:21:00,
2013-06-27 00:22:00,71.4,70.2,30.01,ESE,123,0.0,0.0,96,0.00,,,0.00,Wunderground v.1.15,2013-06-27 04:22:00,
2013-06-27 00:24:00,71.5,70.3,30.01,ESE,120,0.0,0.0,96,0.00,,,0.00,Wunderground v.1.15,2013-06-27 04:24:00,
2013-06-27 00:26:00,71.6,70.4,30.01,ESE,120,0.0,0.0,96,0.00,,,0.00,Wunderground v.1.15,2013-06-27 04:26:00,
2013-06-27 00:27:00,71.6,70.4,30.01,ESE,120,0.0,0.0,96,0.00,,,0.00,Wunderground v.1.15,2013-06-27 04:27:00,
2013-06-27 00:29:00,71.6,70.4,30.01,ESE,120,0.0,0.0,96,0.00,,,0.00,Wunderground v.1.15,2013-06-27 04:29:00,
2013-06-27 00:31:00,71.7,70.5,30.01,ESE,120,0.0,0.0,96,0.00,,,0.00,Wunderground v.1.15,2013-06-27 04:31:00,
2013-06-27 00:33:00,71.7,70.5,30.01,ESE,120,0.0,0.0,96,0.00,,,0.00,Wunderground v.1.15,2013-06-27 04:33:00,
2013-06-27 00:35:00,71.8,70.6,30.01,ESE,120,0.0,0.0,96,0.00,,,0.00,Wunderground v.1.15,2013-06-27 04:35:00,
2013-06-27 00:36:00,71.8,70.6,30.00,ESE,120,0.0,0.0,96,0.00,,,0.00,Wunderground v.1.15,2013-06-27 04:36:00,
2013-06-27 00:39:00,71.9,70.7,30.00,ESE,120,0.0,0.0,96,0.00,,,0.00,Wunderground v.1.15,2013-06-27 04:39:00,
2013-06-27 00:41:00,71.9,70.7,30.00,ESE,120,0.0,0.0,96,0.00,,,0.00,Wunderground v.1.15,2013-06-27 04:41:00,
2013-06-27 00:43:00,71.9,70.4,30.00,ESE,120,0.0,0.0,95,0.00,,,0.00,Wunderground v.1.15,2013-06-27 04:43:00,
2013-06-27 00:45:00,71.9,70.7,30.00,ESE,120,0.0,0.0,96,0.00,,,0.00,Wunderground v.1.15,2013-06-27 04:45:00,
2013-06-27 00:46:00,71.9,70.7,30.01,ESE,120,0.0,0.0,96,0.00,,,0.00,Wunderground v.1.15,2013-06-27 04:46:00,
2013-06-27 00:48:00,71.9,70.4,30.01,ESE,120,0.0,0.0,95,0.00,,,0.00,Wunderground v.1.15,2013-06-27 04:48:00,
2013-06-27 00:51:00,71.9,70.4,30.01,ESE,120,0.0,0.0,95,0.00,,,0.00,Wunderground v.1.15,2013-06-27 04:51:00,
2013-06-27 00:53:00,71.9,70.4,30.00,ESE,120,0.0,0.0,95,0.00,,,0.00,Wunderground v.1.15,2013-06-27 04:53:00,
2013-06-27 00:54:00,71.9,70.4,30.00,ESE,120,0.0,0.0,95,0.00,,,0.00,Wunderground v.1.15,2013-06-27 04:54:00,
2013-06-27 00:58:00,71.9,70.7,30.00,ESE,120,0.0,0.0,96,0.00,,,0.00,Wunderground v.1.15,2013-06-27 04:58:00,
2013-06-27 00:59:00,72.0,70.8,30.00,ESE,120,0.0,0.0,96,0.00,,,0.00,Wunderground v.1.15,2013-06-27 04:59:00,
2013-06-27 01:00:00,72.0,70.8,30.01,ESE,120,0.0,0.0,96,0.00,,,0.00,Wunderground v.1.15,2013-06-27 05:00:00,
2013-06-27 01:01:00,72.0,70.8,30.00,NE,45,1.0,1.0,96,0.00,,,0.00,Wunderground v.1.15,2013-06-27 05:01:00,
2013-06-27 01:03:00,72.1,70.9,30.00,North,351,1.0,1.0,96,0.00,,,0.00,Wunderground v.1.15,2013-06-27 05:03:00,
2013-06-27 01:05:00,72.3,71.1,30.01,NW,325,1.0,3.0,96,0.00,,,0.00,Wunderground v.1.15,2013-06-27 05:05:00,
2013-06-27 01:07:00,72.5,71.3,30.00,SSE,150,3.0,3.0,96,0.00,,,0.00,Wunderground v.1.15,2013-06-27 05:07:00,
2013-06-27 01:10:00,73.0,71.5,30.00,NNE,24,5.0,5.0,95,0.00,,,0.00,Wunderground v.1.15,2013-06-27 05:10:00,
2013-06-27 01:12:00,73.2,71.7,30.00,East,94,3.0,5.0,95,0.00,,,0.00,Wunderground v.1.15,2013-06-27 05:12:00,
2013-06-27 01:13:00,73.3,71.5,30.00,SE,139,1.0,5.0,94,0.00,,,0.00,Wunderground v.1.15,2013-06-27 05:13:00,
2013-06-27 01:14:00,73.3,71.5,30.00,SSE,166,1.0,5.0,94,0.00,,,0.00,Wunderground v.1.15,2013-06-27 05:14:00,
2013-06-27 01:18:00,73.3,71.5,30.02,SW,235,7.0,7.0,94,3.87,,,0.02,Wunderground v.1.15,2013-06-27 05:18:00,
2013-06-27 01:19:00,73.2,71.1,30.01,SE,129,6.0,7.0,93,8.47,,,0.09,Wunderground v.1.15,2013-06-27 05:19:00,
2013-06-27 01:23:00,71.8,68.1,30.02,SE,145,7.0,11.0,88,3.16,,,0.42,Wunderground v.1.15,2013-06-27 05:23:00,
2013-06-27 01:24:00,71.5,68.1,30.01,SW,233,4.0,11.0,89,2.49,,,0.45,Wunderground v.1.15,2013-06-27 05:24:00,
2013-06-27 01:25:00,71.3,67.9,30.01,East,84,3.0,11.0,89,0.61,,,0.46,Wunderground v.1.15,2013-06-27 05:25:00,
2013-06-27 01:26:00,71.3,67.9,30.03,East,89,17.0,17.0,89,7.20,,,0.51,Wunderground v.1.15,2013-06-27 05:26:00,
2013-06-27 01:29:00,71.7,70.2,30.02,SE,143,10.0,17.0,95,6.86,,,0.73,Wunderground v.1.15,2013-06-27 05:29:00,
2013-06-27 01:32:00,71.9,70.1,30.01,SSE,158,4.0,9.0,94,5.05,,,0.92,Wunderground v.1.15,2013-06-27 05:32:00,
2013-06-27 01:33:00,71.9,70.1,30.00,SSE,154,0.0,9.0,94,2.45,,,0.98,Wunderground v.1.15,2013-06-27 05:33:00,
2013-06-27 01:35:00,71.9,70.4,30.00,West,277,1.0,9.0,95,2.72,,,1.07,Wunderground v.1.15,2013-06-27 05:35:00,
2013-06-27 01:36:00,71.8,70.3,30.00,West,264,0.0,9.0,95,1.22,,,1.08,Wunderground v.1.15,2013-06-27 05:36:00,
2013-06-27 01:38:00,71.7,70.2,30.00,NNW,330,1.0,9.0,95,0.51,,,1.11,Wunderground v.1.15,2013-06-27 05:38:00,
2013-06-27 01:40:00,71.6,70.4,29.99,NNW,330,0.0,1.0,96,0.15,,,1.11,Wunderground v.1.15,2013-06-27 05:40:00,
2013-06-27 01:42:00,71.6,70.4,29.99,NNW,330,0.0,1.0,96,0.11,,,1.11,Wunderground v.1.15,2013-06-27 05:42:00,
2013-06-27 01:44:00,71.5,70.3,30.00,NNW,330,0.0,1.0,96,0.08,,,1.11,Wunderground v.1.15,2013-06-27 05:44:00,
2013-06-27 01:47:00,71.4,70.2,30.00,East,84,0.0,1.0,96,0.06,,,1.11,Wunderground v.1.15,2013-06-27 05:47:00,
2013-06-27 01:48:00,71.3,70.1,30.00,East,85,0.0,1.0,96,0.05,,,1.11,Wunderground v.1.15,2013-06-27 05:48:00,
2013-06-27 01:49:00,71.3,70.1,30.00,East,84,0.0,1.0,96,0.05,,,1.11,Wunderground v.1.15,2013-06-27 05:49:00,
2013-06-27 01:51:00,71.3,70.1,30.00,NNE,30,0.0,0.0,96,0.04,,,1.11,Wunderground v.1.15,2013-06-27 05:51:00,
2013-06-27 01:52:00,71.3,70.4,30.00,NNE,30,0.0,0.0,97,0.04,,,1.11,Wunderground v.1.15,2013-06-27 05:52:00,
2013-06-27 01:56:00,71.2,70.3,30.00,NNE,30,0.0,0.0,97,0.00,,,1.11,Wunderground v.1.15,2013-06-27 05:56:00,
2013-06-27 01:57:00,71.2,70.3,29.99,NNE,30,0.0,0.0,97,0.00,,,1.11,Wunderground v.1.15,2013-06-27 05:57:00,
2013-06-27 01:58:00,71.2,70.3,29.99,NNE,30,0.0,0.0,97,0.00,,,1.11,Wunderground v.1.15,2013-06-27 05:58:00,
2013-06-27 01:59:00,71.2,70.3,29.99,NNE,30,0.0,0.0,97,0.00,,,1.11,Wunderground v.1.15,2013-06-27 05:59:00,
2013-06-27 02:00:00,71.1,70.2,29.99,NW,311,1.0,1.0,97,0.00,,,1.11,Wunderground v.1.15,2013-06-27 06:00:00,
2013-06-27 02:01:00,71.0,70.1,29.99,NNE,33,0.0,2.0,97,0.00,,,1.11,Wunderground v.1.15,2013-06-27 06:01:00,
2013-06-27 02:02:00,71.0,70.1,29.99,NNE,32,0.0,2.0,97,0.00,,,1.11,Wunderground v.1.15,2013-06-27 06:02:00,
2013-06-27 02:03:00,71.0,70.1,29.99,NNE,32,0.0,2.0,97,0.00,,,1.11,Wunderground v.1.15,2013-06-27 06:03:00,
2013-06-27 02:04:00,71.0,70.1,29.99,NNE,32,0.0,2.0,97,0.00,,,1.11,Wunderground v.1.15,2013-06-27 06:04:00,
2013-06-27 02:05:00,71.0,70.1,29.98,NW,310,0.0,2.0,97,0.00,,,1.11,Wunderground v.1.15,2013-06-27 06:05:00,
2013-06-27 02:07:00,70.9,70.0,29.98,NW,307,0.0,2.0,97,0.00,,,1.11,Wunderground v.1.15,2013-06-27 06:07:00,
2013-06-27 02:08:00,70.9,70.0,29.98,NW,307,0.0,2.0,97,0.00,,,1.11,Wunderground v.1.15,2013-06-27 06:08:00,
2013-06-27 02:09:00,70.9,70.0,29.98,NW,308,0.0,2.0,97,0.00,,,1.11,Wunderground v.1.15,2013-06-27 06:09:00,
2013-06-27 02:10:00,70.9,70.0,29.98,NW,308,0.0,0.0,97,0.00,,,1.11,Wunderground v.1.15,2013-06-27 06:10:00,
2013-06-27 02:12:00,70.9,70.0,29.98,NW,308,0.0,0.0,97,0.00,,,1.11,Wunderground v.1.15,2013-06-27 06:12:00,
2013-06-27 02:13:00,70.9,70.0,29.98,NW,308,0.0,0.0,97,0.00,,,1.11,Wunderground v.1.15,2013-06-27 06:13:00,
2013-06-27 02:14:00,70.9,70.0,29.98,NW,307,0.0,0.0,97,0.00,,,1.11,Wunderground v.1.15,2013-06-27 06:14:00,
2013-06-27 02:15:00,70.8,69.9,29.97,NW,308,0.0,0.0,97,0.00,,,1.11,Wunderground v.1.15,2013-06-27 06:15:00,
2013-06-27 02:17:00,70.8,69.9,29.97,NW,307,0.0,0.0,97,0.00,,,1.11,Wunderground v.1.15,2013-06-27 06:17:00,
2013-06-27 02:18:00,70.8,69.9,29.97,NW,308,0.0,0.0,97,0.00,,,1.11,Wunderground v.1.15,2013-06-27 06:18:00,
2013-06-27 02:19:00,70.7,69.8,29.97,NW,308,0.0,0.0,97,0.00,,,1.11,Wunderground v.1.15,2013-06-27 06:19:00,
2013-06-27 02:20:00,70.8,69.9,29.97,NW,308,0.0,0.0,97,0.00,,,1.11,Wunderground v.1.15,2013-06-27 06:20:00,
2013-06-27 02:22:00,70.7,69.8,29.97,NW,308,0.0,0.0,97,0.00,,,1.11,Wunderground v.1.15,2013-06-27 06:22:00,
2013-06-27 02:23:00,70.7,69.8,29.97,NW,308,0.0,0.0,97,0.00,,,1.11,Wunderground v.1.15,2013-06-27 06:23:00,
2013-06-27 02:24:00,70.7,69.8,29.97,NW,308,0.0,0.0,97,0.00,,,1.11,Wunderground v.1.15,2013-06-27 06:24:00,
2013-06-27 02:26:00,70.7,69.8,29.98,NW,308,0.0,0.0,97,0.00,,,1.11,Wunderground v.1.15,2013-06-27 06:26:00,
2013-06-27 02:27:00,70.7,69.8,29.97,NW,308,0.0,0.0,97,0.00,,,1.11,Wunderground v.1.15,2013-06-27 06:27:00,
2013-06-27 02:28:00,70.7,69.8,29.98,NW,308,0.0,0.0,97,0.00,,,1.11,Wunderground v.1.15,2013-06-27 06:28:00,
2013-06-27 02:29:00,70.7,69.8,29.98,NW,308,0.0,0.0,97,0.00,,,1.11,Wunderground v.1.15,2013-06-27 06:29:00,
2013-06-27 02:31:00,70.7,69.8,29.97,NW,308,0.0,0.0,97,0.00,,,1.11,Wunderground v.1.15,2013-06-27 06:31:00,
2013-06-27 02:32:00,70.7,69.8,29.97,NNW,340,2.0,2.0,97,0.00,,,1.11,Wunderground v.1.15,2013-06-27 06:32:00,
2013-06-27 02:33:00,70.7,70.1,29.97,North,352,1.0,3.0,98,0.00,,,1.11,Wunderground v.1.15,2013-06-27 06:33:00,
2013-06-27 02:34:00,70.8,70.2,29.97,NNE,20,0.0,3.0,98,0.00,,,1.11,Wunderground v.1.15,2013-06-27 06:34:00,
2013-06-27 02:35:00,70.8,70.2,29.97,NNE,20,0.0,3.0,98,0.00,,,1.11,Wunderground v.1.15,2013-06-27 06:35:00,
2013-06-27 02:36:00,70.8,70.2,29.97,NNE,33,3.0,3.0,98,0.00,,,1.11,Wunderground v.1.15,2013-06-27 06:36:00,
2013-06-27 02:37:00,70.8,70.2,29.97,NNE,23,2.0,4.0,98,0.00,,,1.11,Wunderground v.1.15,2013-06-27 06:37:00,
2013-06-27 02:38:00,70.8,70.2,29.97,NE,41,1.0,4.0,98,0.00,,,1.11,Wunderground v.1.15,2013-06-27 06:38:00,
2013-06-27 02:40:00,70.8,70.2,29.97,NE,41,0.0,1.0,98,0.00,,,1.11,Wunderground v.1.15,2013-06-27 06:40:00,
2013-06-27 02:41:00,70.8,70.2,29.97,NE,41,0.0,1.0,98,0.00,,,1.11,Wunderground v.1.15,2013-06-27 06:41:00,
2013-06-27 02:42:00,70.8,70.2,29.97,NE,41,0.0,1.0,98,0.00,,,1.11,Wunderground v.1.15,2013-06-27 06:42:00,
2013-06-27 02:44:00,70.7,70.1,29.97,North,1,1.0,1.0,98,0.00,,,1.11,Wunderground v.1.15,2013-06-27 06:44:00,
2013-06-27 02:45:00,70.7,70.1,29.97,NNW,347,1.0,2.0,98,0.00,,,1.11,Wunderground v.1.15,2013-06-27 06:45:00,
2013-06-27 02:46:00,70.7,70.1,29.97,North,6,1.0,2.0,98,0.00,,,1.11,Wunderground v.1.15,2013-06-27 06:46:00,
2013-06-27 02:48:00,70.7,70.1,29.97,North,4,0.0,2.0,98,0.00,,,1.11,Wunderground v.1.15,2013-06-27 06:48:00,
2013-06-27 02:49:00,70.7,70.1,29.97,NNW,330,0.0,2.0,98,0.00,,,1.11,Wunderground v.1.15,2013-06-27 06:49:00,
2013-06-27 02:50:00,70.7,70.1,29.97,NNW,330,1.0,1.0,98,0.00,,,1.11,Wunderground v.1.15,2013-06-27 06:50:00,
2013-06-27 02:51:00,70.7,70.1,29.97,ESE,113,1.0,1.0,98,0.00,,,1.11,Wunderground v.1.15,2013-06-27 06:51:00,
2013-06-27 02:53:00,70.7,70.1,29.97,NNW,346,0.0,2.0,98,0.00,,,1.11,Wunderground v.1.15,2013-06-27 06:53:00,
2013-06-27 02:54:00,70.7,70.1,29.97,NNW,346,0.0,2.0,98,0.00,,,1.11,Wunderground v.1.15,2013-06-27 06:54:00,
2013-06-27 02:55:00,70.7,70.1,29.97,NNW,346,0.0,2.0,98,0.00,,,1.11,Wunderground v.1.15,2013-06-27 06:55:00,
2013-06-27 02:56:00,70.7,70.1,29.96,NNW,346,0.0,2.0,98,0.00,,,1.11,Wunderground v.1.15,2013-06-27 06:56:00,
2013-06-27 02:57:00,70.7,70.1,29.96,NNW,346,0.0,2.0,98,0.00,,,1.11,Wunderground v.1.15,2013-06-27 06:57:00,
2013-06-27 02:58:00,70.7,70.1,29.96,NNW,347,0.0,2.0,98,0.00,,,1.11,Wunderground v.1.15,2013-06-27 06:58:00,
2013-06-27 02:59:00,70.6,70.0,29.96,NNW,347,0.0,2.0,98,0.00,,,1.11,Wunderground v.1.15,2013-06-27 06:59:00,
2013-06-27 03:01:00,70.6,70.0,29.96,NNW,347,0.0,0.0,98,0.00,,,1.11,Wunderground v.1.15,2013-06-27 07:01:00,
2013-06-27 03:02:00,70.6,70.0,29.96,NE,41,0.0,0.0,98,0.00,,,1.11,Wunderground v.1.15,2013-06-27 07:02:00,
2013-06-27 03:03:00,70.6,70.0,29.96,East,82,0.0,2.0,98,0.00,,,1.11,Wunderground v.1.15,2013-06-27 07:03:00,
2013-06-27 03:04:00,70.5,69.9,29.96,East,82,0.0,2.0,98,0.00,,,1.11,Wunderground v.1.15,2013-06-27 07:04:00,
2013-06-27 03:07:00,70.5,69.9,29.96,ENE,71,2.0,2.0,98,0.00,,,1.11,Wunderground v.1.15,2013-06-27 07:07:00,
2013-06-27 03:09:00,70.5,69.9,29.96,NE,53,0.0,2.0,98,0.00,,,1.11,Wunderground v.1.15,2013-06-27 07:09:00,
2013-06-27 03:12:00,70.4,69.8,29.95,NNE,17,0.0,1.0,98,0.00,,,1.11,Wunderground v.1.15,2013-06-27 07:12:00,
2013-06-27 03:14:00,70.4,69.8,29.95,NNE,20,0.0,1.0,98,0.00,,,1.11,Wunderground v.1.15,2013-06-27 07:14:00,
2013-06-27 03:17:00,70.4,69.8,29.95,ESE,103,1.0,1.0,98,0.00,,,1.11,Wunderground v.1.15,2013-06-27 07:17:00,
2013-06-27 03:18:00,70.4,69.8,29.95,ESE,102,0.0,1.0,98,0.00,,,1.11,Wunderground v.1.15,2013-06-27 07:18:00,
2013-06-27 03:19:00,70.4,69.8,29.95,East,101,0.0,1.0,98,0.00,,,1.11,Wunderground v.1.15,2013-06-27 07:19:00,
2013-06-27 03:20:00,70.3,69.7,29.96,East,101,1.0,1.0,98,0.00,,,1.11,Wunderground v.1.15,2013-06-27 07:20:00,
2013-06-27 03:22:00,70.4,69.8,29.96,East,101,0.0,1.0,98,0.00,,,1.11,Wunderground v.1.15,2013-06-27 07:22:00,
2013-06-27 03:23:00,70.4,69.8,29.95,ESE,102,0.0,1.0,98,0.00,,,1.11,Wunderground v.1.15,2013-06-27 07:23:00,
2013-06-27 03:24:00,70.3,69.7,29.95,ESE,102,0.0,1.0,98,0.00,,,1.11,Wunderground v.1.15,2013-06-27 07:24:00,
2013-06-27 03:25:00,70.4,69.8,29.95,ESE,102,0.0,1.0,98,0.00,,,1.11,Wunderground v.1.15,2013-06-27 07:25:00,
2013-06-27 03:27:00,70.4,69.8,29.95,NNE,30,2.0,2.0,98,0.00,,,1.11,Wunderground v.1.15,2013-06-27 07:27:00,
2013-06-27 03:28:00,70.4,69.8,29.95,NNE,30,0.0,2.0,98,0.00,,,1.11,Wunderground v.1.15,2013-06-27 07:28:00,
2013-06-27 03:29:00,70.4,69.8,29.95,North,7,2.0,2.0,98,0.00,,,1.11,Wunderground v.1.15,2013-06-27 07:29:00,
2013-06-27 03:30:00,70.4,69.8,29.95,North,8,1.0,2.0,98,0.00,,,1.11,Wunderground v.1.15,2013-06-27 07:30:00,
2013-06-27 03:32:00,70.4,69.8,29.95,North,9,0.0,2.0,98,0.00,,,1.11,Wunderground v.1.15,2013-06-27 07:32:00,
2013-06-27 03:33:00,70.4,69.8,29.95,North,9,0.0,2.0,98,0.00,,,1.11,Wunderground v.1.15,2013-06-27 07:33:00,
2013-06-27 03:34:00,70.4,69.8,29.95,North,8,0.0,2.0,98,0.00,,,1.11,Wunderground v.1.15,2013-06-27 07:34:00,
2013-06-27 03:35:00,70.4,69.8,29.95,North,9,0.0,2.0,98,0.00,,,1.11,Wunderground v.1.15,2013-06-27 07:35:00,
2013-06-27 03:37:00,70.4,69.8,29.95,North,8,0.0,2.0,98,0.00,,,1.11,Wunderground v.1.15,2013-06-27 07:37:00,
2013-06-27 03:38:00,70.4,69.8,29.95,North,9,0.0,2.0,98,0.00,,,1.11,Wunderground v.1.15,2013-06-27 07:38:00,
2013-06-27 03:39:00,70.4,69.8,29.94,North,9,0.0,2.0,98,0.00,,,1.11,Wunderground v.1.15,2013-06-27 07:39:00,
2013-06-27 03:40:00,70.4,69.8,29.94,North,9,0.0,0.0,98,0.00,,,1.11,Wunderground v.1.15,2013-06-27 07:40:00,
2013-06-27 03:43:00,70.4,69.8,29.94,North,8,0.0,0.0,98,0.00,,,1.11,Wunderground v.1.15,2013-06-27 07:43:00,
2013-06-27 03:44:00,70.3,69.7,29.94,North,9,0.0,0.0,98,0.00,,,1.11,Wunderground v.1.15,2013-06-27 07:44:00,
2013-06-27 03:45:00,70.4,69.8,29.93,North,4,0.0,0.0,98,0.00,,,1.11,Wunderground v.1.15,2013-06-27 07:45:00,
2013-06-27 03:48:00,70.4,69.8,29.94,North,4,0.0,0.0,98,0.00,,,1.11,Wunderground v.1.15,2013-06-27 07:48:00,
2013-06-27 03:49:00,70.4,69.8,29.93,North,4,0.0,0.0,98,0.00,,,1.11,Wunderground v.1.15,2013-06-27 07:49:00,
2013-06-27 03:50:00,70.4,69.8,29.93,North,4,0.0,0.0,98,0.00,,,1.11,Wunderground v.1.15,2013-06-27 07:50:00,
2013-06-27 03:53:00,70.5,69.9,29.93,North,359,1.0,2.0,98,0.00,,,1.11,Wunderground v.1.15,2013-06-27 07:53:00,
2013-06-27 03:54:00,70.6,70.0,29.93,North,356,0.0,2.0,98,0.00,,,1.11,Wunderground v.1.15,2013-06-27 07:54:00,
2013-06-27 03:55:00,70.6,70.0,29.93,WNW,301,1.0,2.0,98,0.00,,,1.11,Wunderground v.1.15,2013-06-27 07:55:00,
2013-06-27 03:58:00,70.7,70.1,29.93,NW,304,0.0,2.0,98,0.00,,,1.11,Wunderground v.1.15,2013-06-27 07:58:00,
2013-06-27 03:59:00,70.8,70.2,29.93,NNE,15,3.0,4.0,98,0.00,,,1.11,Wunderground v.1.15,2013-06-27 07:59:00,
2013-06-27 04:00:00,70.9,70.3,29.93,NNE,23,3.0,3.0,98,0.00,,,1.11,Wunderground v.1.15,2013-06-27 08:00:00,
2013-06-27 04:03:00,71.1,70.5,29.93,NW,316,0.0,3.0,98,0.00,,,1.11,Wunderground v.1.15,2013-06-27 08:03:00,
2013-06-27 04:04:00,71.1,70.5,29.93,ENE,65,0.0,3.0,98,0.00,,,1.11,Wunderground v.1.15,2013-06-27 08:04:00,
2013-06-27 04:05:00,71.1,70.5,29.92,ENE,65,0.0,3.0,98,0.00,,,1.11,Wunderground v.1.15,2013-06-27 08:05:00,
2013-06-27 04:06:00,71.1,70.5,29.92,ENE,61,1.0,3.0,98,0.00,,,1.11,Wunderground v.1.15,2013-06-27 08:06:00,
2013-06-27 04:08:00,71.2,70.6,29.93,NE,41,0.0,3.0,98,0.00,,,1.11,Wunderground v.1.15,2013-06-27 08:08:00,
2013-06-27 04:09:00,71.2,70.6,29.92,NE,41,0.0,3.0,98,0.00,,,1.11,Wunderground v.1.15,2013-06-27 08:09:00,
2013-06-27 04:10:00,71.3,70.7,29.92,NNE,23,4.0,6.0,98,0.00,,,1.12,Wunderground v.1.15,2013-06-27 08:10:00,
2013-06-27 04:11:00,71.4,70.8,29.92,NE,49,1.0,6.0,98,0.00,,,1.12,Wunderground v.1.15,2013-06-27 08:11:00,
2013-06-27 04:14:00,71.5,70.9,29.92,East,91,2.0,6.0,98,0.00,,,1.12,Wunderground v.1.15,2013-06-27 08:14:00,
2013-06-27 04:15:00,71.6,71.0,29.92,ESE,104,0.0,6.0,98,0.00,,,1.12,Wunderground v.1.15,2013-06-27 08:15:00,
2013-06-27 04:16:00,71.6,71.0,29.92,ENE,71,3.0,6.0,98,0.00,,,1.12,Wunderground v.1.15,2013-06-27 08:16:00,
2013-06-27 04:19:00,71.6,71.0,29.93,NE,53,1.0,6.0,98,0.00,,,1.12,Wunderground v.1.15,2013-06-27 08:19:00,
2013-06-27 04:20:00,71.6,71.0,29.92,North,4,3.0,4.0,98,0.00,,,1.12,Wunderground v.1.15,2013-06-27 08:20:00,
2013-06-27 04:21:00,71.7,71.1,29.92,North,4,1.0,4.0,98,0.00,,,1.12,Wunderground v.1.15,2013-06-27 08:21:00,
2013-06-27 04:24:00,71.7,71.1,29.92,NE,37,5.0,5.0,98,0.00,,,1.12,Wunderground v.1.15,2013-06-27 08:24:00,
2013-06-27 04:25:00,71.7,71.1,29.92,NE,36,2.0,5.0,98,0.00,,,1.12,Wunderground v.1.15,2013-06-27 08:25:00,
2013-06-27 04:26:00,71.7,71.1,29.92,North,11,0.0,5.0,98,0.00,,,1.12,Wunderground v.1.15,2013-06-27 08:26:00,
2013-06-27 04:29:00,71.7,71.1,29.92,ESE,115,2.0,5.0,98,0.00,,,1.12,Wunderground v.1.15,2013-06-27 08:29:00,
2013-06-27 04:30:00,71.8,71.2,29.92,East,79,2.0,2.0,98,0.00,,,1.12,Wunderground v.1.15,2013-06-27 08:30:00,
2013-06-27 04:31:00,71.8,71.2,29.92,East,98,1.0,5.0,98,0.00,,,1.12,Wunderground v.1.15,2013-06-27 08:31:00,
2013-06-27 04:34:00,71.9,71.3,29.92,ESE,123,2.0,5.0,98,0.00,,,1.12,Wunderground v.1.15,2013-06-27 08:34:00,
2013-06-27 04:35:00,71.9,71.3,29.93,NNE,13,1.0,5.0,98,0.00,,,1.12,Wunderground v.1.15,2013-06-27 08:35:00,
2013-06-27 04:36:00,71.9,71.3,29.93,North,355,1.0,5.0,98,0.00,,,1.12,Wunderground v.1.15,2013-06-27 08:36:00,
2013-06-27 04:39:00,72.0,71.4,29.93,ESE,102,2.0,2.0,98,0.00,,,1.12,Wunderground v.1.15,2013-06-27 08:39:00,
2013-06-27 04:40:00,72.0,71.4,29.93,ENE,63,2.0,2.0,98,0.00,,,1.12,Wunderground v.1.15,2013-06-27 08:40:00,
2013-06-27 04:41:00,72.0,71.4,29.93,SE,129,2.0,4.0,98,0.00,,,1.12,Wunderground v.1.15,2013-06-27 08:41:00,
2013-06-27 04:42:00,72.1,71.5,29.93,ESE,120,2.0,4.0,98,0.00,,,1.12,Wunderground v.1.15,2013-06-27 08:42:00,
2013-06-27 04:45:00,72.2,71.6,29.93,ESE,120,0.0,4.0,98,0.00,,,1.12,Wunderground v.1.15,2013-06-27 08:45:00,
2013-06-27 04:46:00,72.2,71.6,29.93,ESE,119,0.0,4.0,98,0.00,,,1.12,Wunderground v.1.15,2013-06-27 08:46:00,
2013-06-27 04:47:00,72.2,71.6,29.93,NE,53,2.0,4.0,98,0.00,,,1.12,Wunderground v.1.15,2013-06-27 08:47:00,
2013-06-27 04:50:00,72.2,71.6,29.94,NE,47,2.0,3.0,98,0.00,,,1.12,Wunderground v.1.15,2013-06-27 08:50:00,
2013-06-27 04:51:00,72.2,71.6,29.94,ESE,108,1.0,3.0,98,0.00,,,1.12,Wunderground v.1.15,2013-06-27 08:51:00,
2013-06-27 04:52:00,72.3,71.7,29.93,South,183,1.0,4.0,98,0.00,,,1.12,Wunderground v.1.15,2013-06-27 08:52:00,
2013-06-27 04:55:00,72.4,71.8,29.93,SSE,154,2.0,4.0,98,0.00,,,1.12,Wunderground v.1.15,2013-06-27 08:55:00,
2013-06-27 04:56:00,72.4,71.8,29.93,SE,143,2.0,4.0,98,0.00,,,1.12,Wunderground v.1.15,2013-06-27 08:56:00,
2013-06-27 04:57:00,72.4,71.8,29.93,ESE,123,2.0,4.0,98,0.00,,,1.12,Wunderground v.1.15,2013-06-27 08:57:00,
2013-06-27 05:00:00,72.4,71.8,29.94,ENE,67,1.0,4.0,98,0.00,,,1.12,Wunderground v.1.15,2013-06-27 09:00:00,
2013-06-27 05:01:00,72.4,71.8,29.94,SW,229,1.0,4.0,98,0.00,,,1.12,Wunderground v.1.15,2013-06-27 09:01:00,
2013-06-27 05:02:00,72.4,71.8,29.94,West,264,0.0,4.0,98,0.00,,,1.12,Wunderground v.1.15,2013-06-27 09:02:00,
2013-06-27 05:05:00,72.4,71.8,29.94,SSE,150,2.0,4.0,98,0.00,,,1.12,Wunderground v.1.15,2013-06-27 09:05:00,
2013-06-27 05:06:00,72.3,71.7,29.94,SSE,150,2.0,4.0,98,0.00,,,1.12,Wunderground v.1.15,2013-06-27 09:06:00,
2013-06-27 05:07:00,72.3,71.7,29.94,SE,140,0.0,4.0,98,0.00,,,1.12,Wunderground v.1.15,2013-06-27 09:07:00,
2013-06-27 05:10:00,72.3,71.7,29.93,SSE,155,0.0,1.0,98,0.00,,,1.12,Wunderground v.1.15,2013-06-27 09:10:00,
2013-06-27 05:11:00,72.3,71.7,29.93,SSE,148,0.0,1.0,98,0.00,,,1.12,Wunderground v.1.15,2013-06-27 09:11:00,
2013-06-27 05:12:00,72.3,71.7,29.93,SSE,152,0.0,1.0,98,0.00,,,1.12,Wunderground v.1.15,2013-06-27 09:12:00,
2013-06-27 05:13:00,72.3,71.7,29.93,ESE,110,0.0,1.0,98,0.00,,,1.12,Wunderground v.1.15,2013-06-27 09:13:00,
2013-06-27 05:16:00,72.3,71.7,29.94,SE,142,0.0,1.0,98,0.00,,,1.12,Wunderground v.1.15,2013-06-27 09:16:00,
2013-06-27 05:17:00,72.2,71.6,29.94,South,175,0.0,1.0,98,0.00,,,1.12,Wunderground v.1.15,2013-06-27 09:17:00,
2013-06-27 05:18:00,72.2,71.6,29.94,South,174,0.0,1.0,98,0.00,,,1.12,Wunderground v.1.15,2013-06-27 09:18:00,
2013-06-27 05:21:00,72.2,71.6,29.94,SSE,147,1.0,1.0,98,0.00,,,1.12,Wunderground v.1.15,2013-06-27 09:21:00,
2013-06-27 05:22:00,72.2,71.6,29.94,SE,146,0.0,1.0,98,0.00,,,1.12,Wunderground v.1.15,2013-06-27 09:22:00,
2013-06-27 05:23:00,72.2,71.6,29.94,SE,146,0.0,1.0,98,0.00,,,1.12,Wunderground v.1.15,2013-06-27 09:23:00,
2013-06-27 05:26:00,72.1,71.5,29.94,SSE,153,0.0,1.0,98,0.00,,,1.12,Wunderground v.1.15,2013-06-27 09:26:00,
2013-06-27 05:27:00,72.1,71.5,29.94,SSE,155,0.0,1.0,98,0.00,,,1.12,Wunderground v.1.15,2013-06-27 09:27:00,
2013-06-27 05:28:00,72.1,71.5,29.94,SSE,156,0.0,1.0,98,0.00,,,1.12,Wunderground v.1.15,2013-06-27 09:28:00,
2013-06-27 05:31:00,72.1,71.5,29.94,SSE,155,0.0,0.0,98,0.00,,,1.12,Wunderground v.1.15,2013-06-27 09:31:00,
2013-06-27 05:32:00,72.1,71.5,29.94,SSE,158,0.0,0.0,98,0.00,,,1.12,Wunderground v.1.15,2013-06-27 09:32:00,
2013-06-27 05:33:00,72.1,71.5,29.94,SSW,210,0.0,0.0,98,0.00,,,1.12,Wunderground v.1.15,2013-06-27 09:33:00,
2013-06-27 05:36:00,72.2,71.6,29.94,SSE,156,0.0,2.0,98,0.00,,,1.12,Wunderground v.1.15,2013-06-27 09:36:00,
2013-06-27 05:37:00,72.2,71.6,29.95,SSE,148,0.0,2.0,98,0.00,,,1.12,Wunderground v.1.15,2013-06-27 09:37:00,
2013-06-27 05:38:00,72.2,71.6,29.95,SSE,148,0.0,2.0,98,0.00,,,1.12,Wunderground v.1.15,2013-06-27 09:38:00,
2013-06-27 05:39:00,72.2,71.6,29.95,SSE,148,0.0,2.0,98,0.00,,,1.12,Wunderground v.1.15,2013-06-27 09:39:00,
2013-06-27 05:41:00,72.2,71.6,29.94,SSE,148,0.0,0.0,98,0.00,,,1.12,Wunderground v.1.15,2013-06-27 09:41:00,
2013-06-27 05:42:00,72.2,71.6,29.94,SSE,148,0.0,0.0,98,0.00,,,1.12,Wunderground v.1.15,2013-06-27 09:42:00,
2013-06-27 05:43:00,72.2,71.6,29.94,SSE,150,0.0,0.0,98,0.00,,,1.12,Wunderground v.1.15,2013-06-27 09:43:00,
2013-06-27 05:44:00,72.2,71.6,29.94,SSE,150,0.0,0.0,98,0.00,,,1.12,Wunderground v.1.15,2013-06-27 09:44:00,
2013-06-27 05:47:00,72.2,71.6,29.94,ESE,120,0.0,0.0,98,0.00,,,1.12,Wunderground v.1.15,2013-06-27 09:47:00,
2013-06-27 05:48:00,72.1,71.5,29.94,ESE,120,0.0,0.0,98,0.00,,,1.12,Wunderground v.1.15,2013-06-27 09:48:00,
2013-06-27 05:49:00,72.2,71.6,29.94,ESE,120,0.0,0.0,98,0.00,,,1.12,Wunderground v.1.15,2013-06-27 09:49:00,
2013-06-27 05:52:00,72.1,71.5,29.94,ESE,120,0.0,0.0,98,0.00,,,1.12,Wunderground v.1.15,2013-06-27 09:52:00,
2013-06-27 05:53:00,72.1,71.5,29.94,ESE,121,0.0,0.0,98,0.00,,,1.12,Wunderground v.1.15,2013-06-27 09:53:00,
2013-06-27 05:54:00,72.1,71.5,29.94,ESE,122,0.0,0.0,98,0.00,,,1.12,Wunderground v.1.15,2013-06-27 09:54:00,
2013-06-27 05:57:00,72.1,71.5,29.94,South,187,0.0,0.0,98,0.00,,,1.12,Wunderground v.1.15,2013-06-27 09:57:00,
2013-06-27 05:59:00,72.1,71.5,29.94,South,187,0.0,0.0,98,0.00,,,1.12,Wunderground v.1.15,2013-06-27 09:59:00,
2013-06-27 06:02:00,72.0,71.4,29.94,South,186,0.0,0.0,98,0.00,,,1.12,Wunderground v.1.15,2013-06-27 10:02:00,
2013-06-27 06:04:00,72.0,71.4,29.94,South,187,0.0,0.0,98,0.00,,,1.12,Wunderground v.1.15,2013-06-27 10:04:00,
2013-06-27 06:05:00,72.0,71.4,29.94,South,187,0.0,0.0,98,0.00,,,1.12,Wunderground v.1.15,2013-06-27 10:05:00,
2013-06-27 06:07:00,72.0,71.4,29.95,South,186,0.0,0.0,98,0.00,,,1.12,Wunderground v.1.15,2013-06-27 10:07:00,
2013-06-27 06:08:00,72.0,71.4,29.95,South,187,0.0,0.0,98,0.00,,,1.12,Wunderground v.1.15,2013-06-27 10:08:00,
2013-06-27 06:09:00,72.0,71.4,29.95,South,187,0.0,0.0,98,0.00,,,1.12,Wunderground v.1.15,2013-06-27 10:09:00,
2013-06-27 06:10:00,71.9,71.3,29.95,South,187,0.0,0.0,98,0.00,,,1.12,Wunderground v.1.15,2013-06-27 10:10:00,
2013-06-27 06:12:00,71.9,71.3,29.95,South,187,0.0,0.0,98,0.00,,,1.12,Wunderground v.1.15,2013-06-27 10:12:00,
2013-06-27 06:13:00,71.9,71.3,29.95,South,187,0.0,0.0,98,0.00,,,1.12,Wunderground v.1.15,2013-06-27 10:13:00,
2013-06-27 06:14:00,71.9,71.3,29.95,South,187,0.0,0.0,98,0.00,,,1.12,Wunderground v.1.15,2013-06-27 10:14:00,
2013-06-27 06:15:00,71.8,71.2,29.95,South,186,0.0,0.0,98,0.00,,,1.12,Wunderground v.1.15,2013-06-27 10:15:00,
2013-06-27 06:17:00,71.8,71.2,29.95,South,187,0.0,0.0,98,0.00,,,1.12,Wunderground v.1.15,2013-06-27 10:17:00,
2013-06-27 06:18:00,71.8,71.2,29.95,South,187,0.0,0.0,98,0.00,,,1.12,Wunderground v.1.15,2013-06-27 10:18:00,
2013-06-27 06:19:00,71.8,71.2,29.95,South,187,0.0,0.0,98,0.00,,,1.12,Wunderground v.1.15,2013-06-27 10:19:00,
2013-06-27 06:20:00,71.8,71.2,29.95,South,187,0.0,0.0,98,0.00,,,1.12,Wunderground v.1.15,2013-06-27 10:20:00,
2013-06-27 06:23:00,71.7,71.1,29.95,South,187,0.0,0.0,98,0.00,,,1.12,Wunderground v.1.15,2013-06-27 10:23:00,
2013-06-27 06:24:00,71.7,71.1,29.95,South,187,0.0,0.0,98,0.00,,,1.12,Wunderground v.1.15,2013-06-27 10:24:00,
2013-06-27 06:25:00,71.7,71.1,29.95,South,187,0.0,0.0,98,0.00,,,1.12,Wunderground v.1.15,2013-06-27 10:25:00,
2013-06-27 06:28:00,71.8,71.2,29.95,South,187,0.0,0.0,98,0.00,,,1.12,Wunderground v.1.15,2013-06-27 10:28:00,
2013-06-27 06:29:00,71.8,71.2,29.95,South,187,0.0,0.0,98,0.00,,,1.12,Wunderground v.1.15,2013-06-27 10:29:00,
2013-06-27 06:30:00,71.8,71.2,29.95,South,187,0.0,0.0,98,0.00,,,1.12,Wunderground v.1.15,2013-06-27 10:30:00,
2013-06-27 06:33:00,71.8,71.2,29.95,South,187,0.0,0.0,98,0.00,,,1.12,Wunderground v.1.15,2013-06-27 10:33:00,
2013-06-27 06:34:00,71.8,71.2,29.95,South,187,0.0,0.0,98,0.00,,,1.12,Wunderground v.1.15,2013-06-27 10:34:00,
2013-06-27 06:35:00,71.8,71.2,29.95,South,187,0.0,0.0,98,0.00,,,1.12,Wunderground v.1.15,2013-06-27 10:35:00,
2013-06-27 06:36:00,71.8,71.2,29.95,South,187,0.0,0.0,98,0.00,,,1.12,Wunderground v.1.15,2013-06-27 10:36:00,
2013-06-27 06:38:00,71.8,71.2,29.95,South,187,0.0,0.0,98,0.00,,,1.12,Wunderground v.1.15,2013-06-27 10:38:00,
2013-06-27 06:40:00,71.8,71.2,29.95,South,187,0.0,0.0,98,0.00,,,1.12,Wunderground v.1.15,2013-06-27 10:40:00,
2013-06-27 06:41:00,71.8,71.2,29.95,South,187,0.0,0.0,98,0.00,,,1.12,Wunderground v.1.15,2013-06-27 10:41:00,
2013-06-27 06:43:00,71.7,71.1,29.95,South,187,0.0,0.0,98,0.00,,,1.12,Wunderground v.1.15,2013-06-27 10:43:00,
2013-06-27 06:45:00,71.7,71.1,29.95,South,187,0.0,0.0,98,0.00,,,1.12,Wunderground v.1.15,2013-06-27 10:45:00,
2013-06-27 06:46:00,71.7,71.1,29.95,South,187,0.0,0.0,98,0.00,,,1.12,Wunderground v.1.15,2013-06-27 10:46:00,
2013-06-27 06:48:00,71.8,71.2,29.95,South,187,0.0,0.0,98,0.00,,,1.12,Wunderground v.1.15,2013-06-27 10:48:00,
2013-06-27 06:50:00,71.8,71.2,29.95,South,186,0.0,0.0,98,0.00,,,1.12,Wunderground v.1.15,2013-06-27 10:50:00,
2013-06-27 06:51:00,71.8,71.2,29.95,South,187,0.0,0.0,98,0.00,,,1.12,Wunderground v.1.15,2013-06-27 10:51:00,
2013-06-27 06:54:00,71.8,71.2,29.96,South,187,0.0,0.0,98,0.00,,,1.12,Wunderground v.1.15,2013-06-27 10:54:00,
2013-06-27 06:55:00,71.8,71.2,29.96,South,187,0.0,0.0,98,0.00,,,1.12,Wunderground v.1.15,2013-06-27 10:55:00,
2013-06-27 06:56:00,71.8,71.2,29.96,South,187,0.0,0.0,98,0.00,,,1.12,Wunderground v.1.15,2013-06-27 10:56:00,
2013-06-27 06:59:00,71.9,71.3,29.95,SE,131,3.0,3.0,98,0.00,,,1.12,Wunderground v.1.15,2013-06-27 10:59:00,
2013-06-27 07:00:00,71.9,71.3,29.95,SSE,164,2.0,2.0,98,0.00,,,1.12,Wunderground v.1.15,2013-06-27 11:00:00,
2013-06-27 07:01:00,72.0,71.4,29.95,East,85,0.0,2.0,98,0.00,,,1.12,Wunderground v.1.15,2013-06-27 11:01:00,
2013-06-27 07:02:00,72.0,71.4,29.95,SE,125,1.0,2.0,98,0.00,,,1.12,Wunderground v.1.15,2013-06-27 11:02:00,
2013-06-27 07:04:00,72.0,71.4,29.95,ESE,104,1.0,3.0,98,0.00,,,1.12,Wunderground v.1.15,2013-06-27 11:04:00,
2013-06-27 07:05:00,72.0,71.4,29.95,ESE,105,1.0,3.0,98,0.00,,,1.12,Wunderground v.1.15,2013-06-27 11:05:00,
2013-06-27 07:06:00,72.0,71.4,29.95,SSE,163,2.0,5.0,98,0.00,,,1.12,Wunderground v.1.15,2013-06-27 11:06:00,
2013-06-27 07:07:00,72.0,71.4,29.95,SSE,162,0.0,5.0,98,0.00,,,1.12,Wunderground v.1.15,2013-06-27 11:07:00,
2013-06-27 07:09:00,72.0,71.4,29.95,South,173,1.0,5.0,98,0.00,,,1.12,Wunderground v.1.15,2013-06-27 11:09:00,
2013-06-27 07:10:00,72.0,71.4,29.95,SSE,158,0.0,1.0,98,0.00,,,1.12,Wunderground v.1.15,2013-06-27 11:10:00,
2013-06-27 07:11:00,72.1,71.5,29.95,ENE,73,1.0,2.0,98,0.00,,,1.12,Wunderground v.1.15,2013-06-27 11:11:00,
2013-06-27 07:12:00,72.0,71.4,29.94,NNE,32,1.0,3.0,98,0.00,,,1.12,Wunderground v.1.15,2013-06-27 11:12:00,
2013-06-27 07:15:00,72.1,71.5,29.95,East,94,0.0,4.0,98,0.00,,,1.12,Wunderground v.1.15,2013-06-27 11:15:00,
2013-06-27 07:16:00,72.0,71.4,29.95,ENE,67,0.0,4.0,98,0.00,,,1.12,Wunderground v.1.15,2013-06-27 11:16:00,
2013-06-27 07:17:00,72.1,71.5,29.94,ENE,67,0.0,4.0,98,0.00,,,1.12,Wunderground v.1.15,2013-06-27 11:17:00,
2013-06-27 07:20:00,72.1,71.5,29.93,ESE,110,1.0,1.0,98,0.00,,,1.12,Wunderground v.1.15,2013-06-27 11:20:00,
2013-06-27 07:21:00,72.1,71.5,29.93,ESE,110,1.0,1.0,98,0.00,,,1.12,Wunderground v.1.15,2013-06-27 11:21:00,
2013-06-27 07:22:00,72.1,71.5,29.93,ESE,109,0.0,1.0,98,0.00,,,1.12,Wunderground v.1.15,2013-06-27 11:22:00,
2013-06-27 07:25:00,72.0,71.4,29.93,North,4,1.0,1.0,98,0.00,,,1.12,Wunderground v.1.15,2013-06-27 11:25:00,
2013-06-27 07:26:00,72.1,71.5,29.93,NE,38,1.0,1.0,98,0.00,,,1.12,Wunderground v.1.15,2013-06-27 11:26:00,
2013-06-27 07:27:00,72.1,71.5,29.93,NNE,32,1.0,1.0,98,0.00,,,1.12,Wunderground v.1.15,2013-06-27 11:27:00,
2013-06-27 07:28:00,72.1,71.5,29.93,NNE,33,1.0,1.0,98,0.00,,,1.12,Wunderground v.1.15,2013-06-27 11:28:00,
2013-06-27 07:30:00,72.1,71.5,29.92,NNW,343,0.0,1.0,98,0.00,,,1.12,Wunderground v.1.15,2013-06-27 11:30:00,
2013-06-27 07:31:00,72.1,71.5,29.92,NNW,343,0.0,1.0,98,0.00,,,1.12,Wunderground v.1.15,2013-06-27 11:31:00,
2013-06-27 07:32:00,72.1,71.5,29.92,North,359,0.0,1.0,98,0.00,,,1.12,Wunderground v.1.15,2013-06-27 11:32:00,
2013-06-27 07:33:00,72.1,71.5,29.92,North,360,0.0,1.0,98,0.00,,,1.12,Wunderground v.1.15,2013-06-27 11:33:00,
2013-06-27 07:35:00,72.1,71.5,29.92,North,360,0.0,1.0,98,0.00,,,1.12,Wunderground v.1.15,2013-06-27 11:35:00,
2013-06-27 07:36:00,72.1,71.5,29.92,North,359,0.0,1.0,98,0.00,,,1.12,Wunderground v.1.15,2013-06-27 11:36:00,
2013-06-27 07:37:00,72.1,71.5,29.92,ENE,73,0.0,1.0,98,0.00,,,1.12,Wunderground v.1.15,2013-06-27 11:37:00,
2013-06-27 07:38:00,72.1,71.5,29.92,NE,53,2.0,2.0,98,0.00,,,1.12,Wunderground v.1.15,2013-06-27 11:38:00,
2013-06-27 07:40:00,72.1,71.5,29.92,NE,41,1.0,2.0,98,0.00,,,1.12,Wunderground v.1.15,2013-06-27 11:40:00,
2013-06-27 07:41:00,72.1,71.5,29.92,NNE,33,1.0,2.0,98,0.00,,,1.12,Wunderground v.1.15,2013-06-27 11:41:00,
2013-06-27 07:42:00,72.1,71.5,29.92,NNE,32,0.0,2.0,98,0.00,,,1.12,Wunderground v.1.15,2013-06-27 11:42:00,
2013-06-27 07:43:00,72.1,71.5,29.92,NNE,18,1.0,4.0,98,0.00,,,1.12,Wunderground v.1.15,2013-06-27 11:43:00,
2013-06-27 07:46:00,72.2,71.6,29.92,North,358,3.0,6.0,98,0.00,,,1.12,Wunderground v.1.15,2013-06-27 11:46:00,
2013-06-27 07:47:00,72.2,71.6,29.92,NNE,18,2.0,6.0,98,0.00,,,1.12,Wunderground v.1.15,2013-06-27 11:47:00,
2013-06-27 07:48:00,72.2,71.6,29.92,ENE,78,1.0,6.0,98,0.00,,,1.12,Wunderground v.1.15,2013-06-27 11:48:00,
2013-06-27 07:51:00,72.3,71.7,29.92,NE,56,4.0,7.0,98,0.00,,,1.12,Wunderground v.1.15,2013-06-27 11:51:00,
2013-06-27 07:52:00,72.3,71.7,29.92,North,350,3.0,8.0,98,0.00,,,1.12,Wunderground v.1.15,2013-06-27 11:52:00,
2013-06-27 07:53:00,72.3,71.7,29.92,NE,50,1.0,8.0,98,0.00,,,1.12,Wunderground v.1.15,2013-06-27 11:53:00,
2013-06-27 07:54:00,72.4,71.8,29.91,NE,44,2.0,8.0,98,0.00,,,1.12,Wunderground v.1.15,2013-06-27 11:54:00,
2013-06-27 07:56:00,72.4,71.8,29.92,NE,41,4.0,8.0,98,0.00,,,1.12,Wunderground v.1.15,2013-06-27 11:56:00,
2013-06-27 07:57:00,72.4,71.8,29.92,NE,53,4.0,8.0,98,0.00,,,1.12,Wunderground v.1.15,2013-06-27 11:57:00,
2013-06-27 07:58:00,72.4,71.8,29.92,NNW,333,2.0,8.0,98,0.00,,,1.12,Wunderground v.1.15,2013-06-27 11:58:00,
2013-06-27 07:59:00,72.5,71.9,29.92,NNE,20,2.0,8.0,98,0.00,,,1.12,Wunderground v.1.15,2013-06-27 11:59:00,
2013-06-27 08:01:00,72.6,72.0,29.92,North,4,1.0,3.0,98,0.00,,,1.12,Wunderground v.1.15,2013-06-27 12:01:00,
2013-06-27 08:02:00,72.6,72.0,29.92,NE,45,4.0,7.0,98,0.00,,,1.12,Wunderground v.1.15,2013-06-27 12:02:00,
2013-06-27 08:03:00,72.6,72.0,29.92,NE,38,3.0,7.0,98,0.00,,,1.12,Wunderground v.1.15,2013-06-27 12:03:00,
2013-06-27 08:04:00,72.6,72.0,29.92,North,350,1.0,7.0,98,0.00,,,1.12,Wunderground v.1.15,2013-06-27 12:04:00,
2013-06-27 08:06:00,72.7,72.1,29.92,NE,36,0.0,7.0,98,0.00,,,1.12,Wunderground v.1.15,2013-06-27 12:06:00,
2013-06-27 08:07:00,72.7,72.1,29.92,NNW,338,1.0,7.0,98,0.00,,,1.12,Wunderground v.1.15,2013-06-27 12:07:00,
2013-06-27 08:08:00,72.7,72.1,29.92,NNE,12,2.0,7.0,98,0.00,,,1.12,Wunderground v.1.15,2013-06-27 12:08:00,
2013-06-27 08:09:00,72.8,72.2,29.92,NNE,26,0.0,7.0,98,0.00,,,1.12,Wunderground v.1.15,2013-06-27 12:09:00,
2013-06-27 08:11:00,72.8,72.2,29.92,ESE,111,4.0,4.0,98,0.00,,,1.12,Wunderground v.1.15,2013-06-27 12:11:00,
2013-06-27 08:13:00,72.9,72.3,29.92,ENE,58,5.0,5.0,98,0.00,,,1.12,Wunderground v.1.15,2013-06-27 12:13:00,
2013-06-27 08:14:00,72.9,72.3,29.92,NNE,30,2.0,5.0,98,0.00,,,1.12,Wunderground v.1.15,2013-06-27 12:14:00,
2013-06-27 08:16:00,72.9,72.3,29.92,NE,42,2.0,5.0,98,0.00,,,1.12,Wunderground v.1.15,2013-06-27 12:16:00,
2013-06-27 08:18:00,73.0,72.4,29.92,NE,41,2.0,5.0,98,0.00,,,1.12,Wunderground v.1.15,2013-06-27 12:18:00,
2013-06-27 08:19:00,73.1,72.5,29.92,NE,41,1.0,2.0,98,0.00,,,1.12,Wunderground v.1.15,2013-06-27 12:19:00,
2013-06-27 08:21:00,73.1,72.5,29.92,NNW,338,0.0,3.0,98,0.00,,,1.12,Wunderground v.1.15,2013-06-27 12:21:00,
2013-06-27 08:23:00,73.2,72.6,29.91,NE,46,1.0,3.0,98,0.00,,,1.12,Wunderground v.1.15,2013-06-27 12:23:00,
2013-06-27 08:24:00,73.2,72.6,29.91,NE,46,1.0,3.0,98,0.00,,,1.12,Wunderground v.1.15,2013-06-27 12:24:00,
2013-06-27 08:25:00,73.2,72.6,29.91,North,11,0.0,4.0,98,0.00,,,1.12,Wunderground v.1.15,2013-06-27 12:25:00,
2013-06-27 08:26:00,73.3,72.7,29.91,ESE,107,2.0,4.0,98,0.00,,,1.12,Wunderground v.1.15,2013-06-27 12:26:00,
2013-06-27 08:28:00,73.3,72.7,29.91,East,89,3.0,4.0,98,0.00,,,1.12,Wunderground v.1.15,2013-06-27 12:28:00,
2013-06-27 08:29:00,73.3,72.7,29.91,East,101,1.0,4.0,98,0.00,,,1.12,Wunderground v.1.15,2013-06-27 12:29:00,
2013-06-27 08:30:00,73.3,72.7,29.91,NE,53,1.0,2.0,98,0.00,,,1.12,Wunderground v.1.15,2013-06-27 12:30:00,
2013-06-27 08:31:00,73.3,72.7,29.91,North,352,1.0,2.0,98,0.00,,,1.12,Wunderground v.1.15,2013-06-27 12:31:00,
2013-06-27 08:34:00,73.4,72.8,29.91,NNW,345,3.0,6.0,98,0.00,,,1.12,Wunderground v.1.15,2013-06-27 12:34:00,
2013-06-27 08:35:00,73.5,72.9,29.91,North,1,2.0,6.0,98,0.00,,,1.12,Wunderground v.1.15,2013-06-27 12:35:00,
2013-06-27 08:36:00,73.5,72.9,29.91,NNE,27,3.0,6.0,98,0.00,,,1.12,Wunderground v.1.15,2013-06-27 12:36:00,
2013-06-27 08:39:00,73.5,72.9,29.91,East,85,2.0,6.0,98,0.00,,,1.12,Wunderground v.1.15,2013-06-27 12:39:00,
2013-06-27 08:40:00,73.6,73.0,29.91,NE,41,0.0,2.0,98,0.00,,,1.12,Wunderground v.1.15,2013-06-27 12:40:00,
2013-06-27 08:42:00,73.6,73.0,29.91,ENE,58,1.0,2.0,98,0.00,,,1.12,Wunderground v.1.15,2013-06-27 12:42:00,
2013-06-27 08:44:00,73.7,73.1,29.91,ENE,68,4.0,4.0,98,0.00,,,1.12,Wunderground v.1.15,2013-06-27 12:44:00,
2013-06-27 08:45:00,73.7,73.1,29.91,NE,50,3.0,6.0,98,0.00,,,1.12,Wunderground v.1.15,2013-06-27 12:45:00,
2013-06-27 08:47:00,73.7,73.1,29.91,NE,48,3.0,6.0,98,0.00,,,1.12,Wunderground v.1.15,2013-06-27 12:47:00,
2013-06-27 08:49:00,73.8,73.2,29.91,ENE,76,1.0,6.0,98,0.00,,,1.12,Wunderground v.1.15,2013-06-27 12:49:00,
2013-06-27 08:50:00,73.9,73.3,29.91,ENE,75,0.0,2.0,98,0.00,,,1.12,Wunderground v.1.15,2013-06-27 12:50:00,
2013-06-27 08:51:00,74.0,73.4,29.91,North,354,4.0,4.0,98,0.00,,,1.12,Wunderground v.1.15,2013-06-27 12:51:00,
2013-06-27 08:52:00,74.0,73.4,29.91,East,91,3.0,5.0,98,0.00,,,1.12,Wunderground v.1.15,2013-06-27 12:52:00,
2013-06-27 08:54:00,74.0,73.4,29.91,ENE,71,3.0,5.0,98,0.00,,,1.12,Wunderground v.1.15,2013-06-27 12:54:00,
2013-06-27 08:55:00,74.0,73.4,29.91,NE,56,5.0,5.0,98,0.00,,,1.12,Wunderground v.1.15,2013-06-27 12:55:00,
2013-06-27 08:56:00,74.0,73.4,29.91,East,98,1.0,5.0,98,0.00,,,1.12,Wunderground v.1.15,2013-06-27 12:56:00,
2013-06-27 08:57:00,74.0,73.4,29.91,NNE,23,5.0,8.0,98,0.00,,,1.12,Wunderground v.1.15,2013-06-27 12:57:00,
2013-06-27 08:59:00,74.0,73.4,29.91,NE,50,3.0,8.0,98,0.00,,,1.12,Wunderground v.1.15,2013-06-27 12:59:00,
2013-06-27 09:00:00,74.0,73.4,29.91,East,101,3.0,3.0,98,0.00,,,1.12,Wunderground v.1.15,2013-06-27 13:00:00,
2013-06-27 09:01:00,74.0,73.4,29.91,SE,125,1.0,3.0,98,0.00,,,1.12,Wunderground v.1.15,2013-06-27 13:01:00,
2013-06-27 09:02:00,74.0,73.4,29.91,North,358,6.0,7.0,98,0.00,,,1.12,Wunderground v.1.15,2013-06-27 13:02:00,
2013-06-27 09:05:00,74.0,73.4,29.91,ENE,73,3.0,7.0,98,0.00,,,1.12,Wunderground v.1.15,2013-06-27 13:05:00,
2013-06-27 09:06:00,74.1,73.5,29.91,NE,41,3.0,7.0,98,0.00,,,1.12,Wunderground v.1.15,2013-06-27 13:06:00,
2013-06-27 09:07:00,74.1,73.5,29.91,NNE,30,8.0,8.0,98,0.00,,,1.12,Wunderground v.1.15,2013-06-27 13:07:00,
2013-06-27 09:10:00,74.1,73.5,29.91,NNE,26,3.0,7.0,98,0.00,,,1.12,Wunderground v.1.15,2013-06-27 13:10:00,
2013-06-27 09:11:00,74.1,73.5,29.91,North,11,3.0,7.0,98,0.00,,,1.12,Wunderground v.1.15,2013-06-27 13:11:00,
2013-06-27 09:13:00,74.2,73.6,29.91,SE,142,2.0,7.0,98,0.00,,,1.12,Wunderground v.1.15,2013-06-27 13:13:00,
2013-06-27 09:15:00,74.3,73.7,29.91,North,354,1.0,7.0,98,0.00,,,1.12,Wunderground v.1.15,2013-06-27 13:15:00,
2013-06-27 09:16:00,74.3,73.7,29.91,NNE,32,4.0,7.0,98,0.00,,,1.12,Wunderground v.1.15,2013-06-27 13:16:00,
2013-06-27 09:18:00,74.3,73.7,29.91,NNE,15,3.0,7.0,98,0.00,,,1.12,Wunderground v.1.15,2013-06-27 13:18:00,
2013-06-27 09:20:00,74.3,73.7,29.91,North,6,6.0,7.0,98,0.00,,,1.12,Wunderground v.1.15,2013-06-27 13:20:00,
2013-06-27 09:21:00,74.3,73.4,29.91,East,79,3.0,7.0,97,0.00,,,1.12,Wunderground v.1.15,2013-06-27 13:21:00,
2013-06-27 09:22:00,74.3,73.4,29.91,ENE,64,6.0,8.0,97,0.00,,,1.12,Wunderground v.1.15,2013-06-27 13:22:00,
2013-06-27 09:23:00,74.4,73.5,29.91,East,79,2.0,8.0,97,0.00,,,1.12,Wunderground v.1.15,2013-06-27 13:23:00,
2013-06-27 09:25:00,74.5,73.6,29.91,NNW,342,2.0,8.0,97,0.00,,,1.12,Wunderground v.1.15,2013-06-27 13:25:00,
2013-06-27 09:26:00,74.6,73.7,29.91,NNE,30,4.0,8.0,97,0.00,,,1.12,Wunderground v.1.15,2013-06-27 13:26:00,
2013-06-27 09:27:00,74.6,73.7,29.91,NNW,333,2.0,8.0,97,0.00,,,1.12,Wunderground v.1.15,2013-06-27 13:27:00,
2013-06-27 09:28:00,74.7,73.8,29.91,NE,41,1.0,8.0,97,0.00,,,1.12,Wunderground v.1.15,2013-06-27 13:28:00,
2013-06-27 09:30:00,74.8,73.9,29.91,East,84,6.0,7.0,97,0.00,,,1.12,Wunderground v.1.15,2013-06-27 13:30:00,
2013-06-27 09:31:00,74.8,73.9,29.91,NNE,32,3.0,7.0,97,0.00,,,1.12,Wunderground v.1.15,2013-06-27 13:31:00,
2013-06-27 09:33:00,74.9,74.0,29.91,ENE,71,1.0,7.0,97,0.00,,,1.12,Wunderground v.1.15,2013-06-27 13:33:00,
2013-06-27 09:35:00,75.0,74.1,29.91,NW,319,0.0,7.0,97,0.00,,,1.12,Wunderground v.1.15,2013-06-27 13:35:00,
2013-06-27 09:36:00,75.1,74.2,29.91,East,79,6.0,7.0,97,0.00,,,1.12,Wunderground v.1.15,2013-06-27 13:36:00,
2013-06-27 09:38:00,75.1,74.2,29.91,North,354,2.0,7.0,97,0.00,,,1.12,Wunderground v.1.15,2013-06-27 13:38:00,
2013-06-27 09:41:00,75.1,73.9,29.91,ESE,114,3.0,7.0,96,0.00,,,1.12,Wunderground v.1.15,2013-06-27 13:41:00,
2013-06-27 09:43:00,75.0,73.8,29.91,ENE,72,5.0,10.0,96,0.00,,,1.12,Wunderground v.1.15,2013-06-27 13:43:00,
2013-06-27 09:44:00,75.0,73.8,29.91,ENE,63,1.0,10.0,96,0.00,,,1.12,Wunderground v.1.15,2013-06-27 13:44:00,
2013-06-27 09:46:00,75.1,73.9,29.91,NNW,342,1.0,10.0,96,0.00,,,1.12,Wunderground v.1.15,2013-06-27 13:46:00,
2013-06-27 09:49:00,75.1,73.9,29.91,NE,38,1.0,10.0,96,0.00,,,1.12,Wunderground v.1.15,2013-06-27 13:49:00,
2013-06-27 09:52:00,75.1,73.9,29.91,North,6,1.0,4.0,96,0.00,,,1.12,Wunderground v.1.15,2013-06-27 13:52:00,
2013-06-27 09:54:00,75.1,73.9,29.91,NE,56,2.0,4.0,96,0.00,,,1.12,Wunderground v.1.15,2013-06-27 13:54:00,
2013-06-27 09:57:00,75.2,74.0,29.91,East,91,2.0,4.0,96,0.00,,,1.12,Wunderground v.1.15,2013-06-27 13:57:00,
2013-06-27 09:59:00,75.3,74.1,29.91,ENE,58,4.0,4.0,96,0.00,,,1.12,Wunderground v.1.15,2013-06-27 13:59:00,
2013-06-27 10:02:00,75.3,74.1,29.91,NE,45,1.0,4.0,96,0.00,,,1.12,Wunderground v.1.15,2013-06-27 14:02:00,
2013-06-27 10:04:00,75.3,73.8,29.91,NE,36,3.0,7.0,95,0.00,,,1.12,Wunderground v.1.15,2013-06-27 14:04:00,
2013-06-27 10:07:00,75.3,73.8,29.91,NNE,32,1.0,7.0,95,0.00,,,1.12,Wunderground v.1.15,2013-06-27 14:07:00,
2013-06-27 10:09:00,75.4,73.9,29.91,SW,215,0.0,7.0,95,0.00,,,1.12,Wunderground v.1.15,2013-06-27 14:09:00,
2013-06-27 10:10:00,75.4,73.9,29.91,NE,36,1.0,3.0,95,0.00,,,1.12,Wunderground v.1.15,2013-06-27 14:10:00,
2013-06-27 10:12:00,75.5,74.0,29.91,NNW,330,4.0,7.0,95,0.00,,,1.12,Wunderground v.1.15,2013-06-27 14:12:00,
2013-06-27 10:14:00,75.6,74.1,29.91,NNW,335,0.0,7.0,95,0.00,,,1.12,Wunderground v.1.15,2013-06-27 14:14:00,
2013-06-27 10:15:00,75.5,74.0,29.91,North,356,2.0,7.0,95,0.00,,,1.12,Wunderground v.1.15,2013-06-27 14:15:00,
2013-06-27 10:17:00,75.7,74.2,29.91,North,356,5.0,7.0,95,0.00,,,1.12,Wunderground v.1.15,2013-06-27 14:17:00,
2013-06-27 10:18:00,75.7,74.2,29.91,NE,39,4.0,7.0,95,0.00,,,1.12,Wunderground v.1.15,2013-06-27 14:18:00,
2013-06-27 10:22:00,75.8,74.3,29.91,NNE,27,3.0,3.0,95,0.00,,,1.12,Wunderground v.1.15,2013-06-27 14:22:00,
2013-06-27 10:23:00,75.9,74.4,29.91,NNE,17,4.0,4.0,95,0.00,,,1.12,Wunderground v.1.15,2013-06-27 14:23:00,
2013-06-27 10:24:00,75.9,74.0,29.91,NNE,26,6.0,6.0,94,0.00,,,1.12,Wunderground v.1.15,2013-06-27 14:24:00,
2013-06-27 10:25:00,75.9,74.0,29.90,ENE,68,3.0,6.0,94,0.00,,,1.12,Wunderground v.1.15,2013-06-27 14:25:00,
2013-06-27 10:27:00,76.0,74.1,29.90,NE,36,4.0,6.0,94,0.00,,,1.12,Wunderground v.1.15,2013-06-27 14:27:00,
2013-06-27 10:28:00,76.0,74.1,29.90,NE,44,3.0,6.0,94,0.00,,,1.12,Wunderground v.1.15,2013-06-27 14:28:00,
2013-06-27 10:29:00,76.2,74.3,29.90,ESE,105,2.0,6.0,94,0.00,,,1.12,Wunderground v.1.15,2013-06-27 14:29:00,
2013-06-27 10:30:00,76.2,74.3,29.90,SSE,163,1.0,3.0,94,0.00,,,1.12,Wunderground v.1.15,2013-06-27 14:30:00,
2013-06-27 10:32:00,76.4,74.5,29.90,NE,53,2.0,4.0,94,0.00,,,1.12,Wunderground v.1.15,2013-06-27 14:32:00,
2013-06-27 10:33:00,76.5,74.6,29.90,NNE,20,3.0,4.0,94,0.00,,,1.12,Wunderground v.1.15,2013-06-27 14:33:00,
2013-06-27 10:34:00,76.6,74.7,29.90,East,86,3.0,8.0,94,0.00,,,1.12,Wunderground v.1.15,2013-06-27 14:34:00,
2013-06-27 10:35:00,76.6,74.4,29.90,NE,44,2.0,8.0,93,0.00,,,1.12,Wunderground v.1.15,2013-06-27 14:35:00,
2013-06-27 10:37:00,76.7,74.5,29.90,NNW,340,5.0,8.0,93,0.00,,,1.12,Wunderground v.1.15,2013-06-27 14:37:00,
2013-06-27 10:38:00,76.6,74.4,29.90,NNW,341,7.0,8.0,93,0.00,,,1.12,Wunderground v.1.15,2013-06-27 14:38:00,
2013-06-27 10:39:00,76.6,74.4,29.90,ESE,105,1.0,10.0,93,0.00,,,1.12,Wunderground v.1.15,2013-06-27 14:39:00,
2013-06-27 10:40:00,76.7,74.8,29.90,ENE,73,1.0,3.0,94,0.00,,,1.12,Wunderground v.1.15,2013-06-27 14:40:00,
2013-06-27 10:43:00,76.9,74.7,29.90,NNE,32,2.0,4.0,93,0.00,,,1.12,Wunderground v.1.15,2013-06-27 14:43:00,
2013-06-27 10:44:00,77.0,74.8,29.90,ENE,67,1.0,4.0,93,0.00,,,1.12,Wunderground v.1.15,2013-06-27 14:44:00,
2013-06-27 10:45:00,77.1,75.2,29.90,NNE,27,5.0,5.0,94,0.00,,,1.12,Wunderground v.1.15,2013-06-27 14:45:00,
2013-06-27 10:48:00,77.3,75.1,29.90,North,352,2.0,7.0,93,0.00,,,1.12,Wunderground v.1.15,2013-06-27 14:48:00,
2013-06-27 10:49:00,77.5,75.3,29.90,ENE,61,3.0,3.0,93,0.00,,,1.12,Wunderground v.1.15,2013-06-27 14:49:00,
2013-06-27 10:50:00,77.6,75.1,29.90,NE,38,2.0,4.0,92,0.00,,,1.12,Wunderground v.1.15,2013-06-27 14:50:00,
2013-06-27 10:51:00,77.6,75.4,29.90,NNW,330,4.0,4.0,93,0.00,,,1.12,Wunderground v.1.15,2013-06-27 14:51:00,
2013-06-27 10:53:00,77.9,75.4,29.90,NNW,335,6.0,7.0,92,0.00,,,1.12,Wunderground v.1.15,2013-06-27 14:53:00,
2013-06-27 10:55:00,78.0,75.2,29.90,NNE,20,2.0,9.0,91,0.00,,,1.12,Wunderground v.1.15,2013-06-27 14:55:00,
2013-06-27 10:56:00,78.1,75.6,29.90,SE,134,0.0,9.0,92,0.00,,,1.12,Wunderground v.1.15,2013-06-27 14:56:00,
2013-06-27 10:58:00,78.5,76.0,29.90,NNW,333,2.0,9.0,92,0.00,,,1.12,Wunderground v.1.15,2013-06-27 14:58:00,
2013-06-27 11:00:00,78.8,76.3,29.90,North,11,3.0,3.0,92,0.00,,,1.12,Wunderground v.1.15,2013-06-27 15:00:00,
2013-06-27 11:01:00,78.9,76.0,29.90,NE,56,2.0,3.0,91,0.00,,,1.12,Wunderground v.1.15,2013-06-27 15:01:00,
2013-06-27 11:03:00,79.3,76.1,29.90,NE,36,4.0,6.0,90,0.00,,,1.12,Wunderground v.1.15,2013-06-27 15:03:00,
2013-06-27 11:05:00,79.5,76.3,29.90,NE,51,0.0,7.0,90,0.00,,,1.12,Wunderground v.1.15,2013-06-27 15:05:00,
2013-06-27 11:06:00,79.6,76.4,29.90,East,84,2.0,7.0,90,0.00,,,1.12,Wunderground v.1.15,2013-06-27 15:06:00,
2013-06-27 11:08:00,79.9,77.0,29.90,NE,48,5.0,7.0,91,0.00,,,1.12,Wunderground v.1.15,2013-06-27 15:08:00,
2013-06-27 11:09:00,79.9,77.0,29.90,NNE,20,4.0,7.0,91,0.00,,,1.12,Wunderground v.1.15,2013-06-27 15:09:00,
2013-06-27 11:10:00,80.0,76.8,29.90,ENE,73,2.0,3.0,90,0.00,,,1.12,Wunderground v.1.15,2013-06-27 15:10:00,
2013-06-27 11:11:00,80.1,76.9,29.89,ENE,58,0.0,3.0,90,0.00,,,1.12,Wunderground v.1.15,2013-06-27 15:11:00,
2013-06-27 11:14:00,80.5,77.0,29.89,ENE,67,2.0,7.0,89,0.00,,,1.12,Wunderground v.1.15,2013-06-27 15:14:00,
2013-06-27 11:16:00,80.7,76.5,29.89,NE,42,2.0,8.0,87,0.00,,,1.12,Wunderground v.1.15,2013-06-27 15:16:00,
2013-06-27 11:19:00,81.1,76.5,29.90,East,92,4.0,9.0,86,0.00,,,1.12,Wunderground v.1.15,2013-06-27 15:19:00,
2013-06-27 11:21:00,81.3,76.7,29.90,East,84,4.0,8.0,86,0.00,,,1.12,Wunderground v.1.15,2013-06-27 15:21:00,
2013-06-27 11:22:00,81.3,76.4,29.90,WNW,297,2.0,12.0,85,0.00,,,1.12,Wunderground v.1.15,2013-06-27 15:22:00,
2013-06-27 11:24:00,81.3,75.6,29.90,NNE,27,5.0,12.0,83,0.00,,,1.12,Wunderground v.1.15,2013-06-27 15:24:00,
2013-06-27 11:26:00,81.3,76.0,29.89,East,84,2.0,12.0,84,0.00,,,1.12,Wunderground v.1.15,2013-06-27 15:26:00,
2013-06-27 11:27:00,81.3,76.0,29.89,North,8,7.0,12.0,84,0.00,,,1.12,Wunderground v.1.15,2013-06-27 15:27:00,
2013-06-27 11:29:00,81.6,75.9,29.90,ESE,120,2.0,12.0,83,0.00,,,1.12,Wunderground v.1.15,2013-06-27 15:29:00,
2013-06-27 11:31:00,81.9,75.9,29.90,ESE,102,4.0,7.0,82,0.00,,,1.12,Wunderground v.1.15,2013-06-27 15:31:00,
2013-06-27 11:33:00,82.0,75.6,29.90,ENE,77,6.0,12.0,81,0.00,,,1.12,Wunderground v.1.15,2013-06-27 15:33:00,
2013-06-27 11:34:00,82.0,75.6,29.90,ENE,76,10.0,12.0,81,0.00,,,1.12,Wunderground v.1.15,2013-06-27 15:34:00,
2013-06-27 11:36:00,82.1,74.9,29.90,NE,56,4.0,12.0,79,0.00,,,1.12,Wunderground v.1.15,2013-06-27 15:36:00,
2013-06-27 11:37:00,82.1,75.3,29.90,ENE,66,5.0,12.0,80,0.00,,,1.12,Wunderground v.1.15,2013-06-27 15:37:00,
2013-06-27 11:38:00,82.1,75.3,29.90,NE,46,5.0,12.0,80,0.00,,,1.12,Wunderground v.1.15,2013-06-27 15:38:00,
2013-06-27 11:39:00,82.1,75.3,29.89,East,85,4.0,12.0,80,0.00,,,1.12,Wunderground v.1.15,2013-06-27 15:39:00,
2013-06-27 11:41:00,82.4,75.6,29.90,East,86,4.0,5.0,80,0.00,,,1.12,Wunderground v.1.15,2013-06-27 15:41:00,
2013-06-27 11:42:00,82.4,75.6,29.90,ESE,123,3.0,5.0,80,0.00,,,1.12,Wunderground v.1.15,2013-06-27 15:42:00,
2013-06-27 11:44:00,82.6,75.4,29.89,NNE,12,4.0,7.0,79,0.00,,,1.12,Wunderground v.1.15,2013-06-27 15:44:00,
2013-06-27 11:47:00,82.9,75.3,29.89,North,11,6.0,8.0,78,0.00,,,1.12,Wunderground v.1.15,2013-06-27 15:47:00,
2013-06-27 11:49:00,83.0,75.4,29.89,NNE,18,4.0,9.0,78,0.00,,,1.12,Wunderground v.1.15,2013-06-27 15:49:00,
2013-06-27 11:52:00,83.6,75.2,29.89,North,356,5.0,7.0,76,0.00,,,1.12,Wunderground v.1.15,2013-06-27 15:52:00,
2013-06-27 11:54:00,83.9,75.1,29.89,North,8,3.0,7.0,75,0.00,,,1.12,Wunderground v.1.15,2013-06-27 15:54:00,
2013-06-27 11:55:00,84.2,75.0,29.89,ESE,104,8.0,10.0,74,0.00,,,1.12,Wunderground v.1.15,2013-06-27 15:55:00,
2013-06-27 11:57:00,84.4,75.6,29.89,East,88,6.0,10.0,75,0.00,,,1.12,Wunderground v.1.15,2013-06-27 15:57:00,
2013-06-27 11:58:00,84.4,75.6,29.89,East,86,1.0,10.0,75,0.00,,,1.12,Wunderground v.1.15,2013-06-27 15:58:00,
2013-06-27 11:59:00,84.5,74.9,29.89,ENE,77,6.0,10.0,73,0.00,,,1.12,Wunderground v.1.15,2013-06-27 15:59:00,
2013-06-27 12:01:00,84.7,75.5,29.89,ENE,60,4.0,12.0,74,0.00,,,1.12,Wunderground v.1.15,2013-06-27 16:01:00,
2013-06-27 12:02:00,84.8,74.8,29.89,East,86,2.0,12.0,72,0.00,,,1.12,Wunderground v.1.15,2013-06-27 16:02:00,
2013-06-27 12:03:00,84.8,74.8,29.89,NNE,19,8.0,12.0,72,0.00,,,1.12,Wunderground v.1.15,2013-06-27 16:03:00,
2013-06-27 12:04:00,84.8,74.8,29.89,NNE,12,5.0,12.0,72,0.00,,,1.12,Wunderground v.1.15,2013-06-27 16:04:00,
2013-06-27 12:06:00,85.0,75.0,29.89,NNE,29,2.0,12.0,72,0.00,,,1.12,Wunderground v.1.15,2013-06-27 16:06:00,
2013-06-27 12:07:00,85.1,75.5,29.89,ESE,102,2.0,12.0,73,0.00,,,1.12,Wunderground v.1.15,2013-06-27 16:07:00,
2013-06-27 12:08:00,85.2,75.6,29.89,ESE,120,1.0,12.0,73,0.00,,,1.12,Wunderground v.1.15,2013-06-27 16:08:00,
2013-06-27 12:09:00,85.5,76.7,29.89,NW,322,1.0,12.0,75,0.00,,,1.12,Wunderground v.1.15,2013-06-27 16:09:00,
2013-06-27 12:11:00,85.7,75.6,29.89,NE,36,5.0,8.0,72,0.00,,,1.12,Wunderground v.1.15,2013-06-27 16:11:00,
2013-06-27 12:12:00,85.6,75.1,29.89,ENE,61,7.0,12.0,71,0.00,,,1.12,Wunderground v.1.15,2013-06-27 16:12:00,
2013-06-27 12:13:00,85.5,75.0,29.89,NE,49,6.0,12.0,71,0.00,,,1.12,Wunderground v.1.15,2013-06-27 16:13:00,
2013-06-27 12:14:00,85.4,74.9,29.89,SSW,193,3.0,12.0,71,0.00,,,1.12,Wunderground v.1.15,2013-06-27 16:14:00,
2013-06-27 12:16:00,85.2,74.7,29.89,East,101,2.0,12.0,71,0.00,,,1.12,Wunderground v.1.15,2013-06-27 16:16:00,
2013-06-27 12:17:00,85.2,75.1,29.89,ENE,77,9.0,12.0,72,0.00,,,1.12,Wunderground v.1.15,2013-06-27 16:17:00,
2013-06-27 12:18:00,85.2,74.7,29.89,NE,50,7.0,12.0,71,0.00,,,1.12,Wunderground v.1.15,2013-06-27 16:18:00,
2013-06-27 12:19:00,85.1,75.1,29.89,SSE,156,2.0,12.0,72,0.00,,,1.12,Wunderground v.1.15,2013-06-27 16:19:00,
2013-06-27 12:21:00,85.0,75.4,29.89,East,79,3.0,9.0,73,0.00,,,1.12,Wunderground v.1.15,2013-06-27 16:21:00,
2013-06-27 12:23:00,85.1,75.5,29.89,ENE,71,6.0,9.0,73,0.00,,,1.12,Wunderground v.1.15,2013-06-27 16:23:00,
2013-06-27 12:24:00,85.1,75.5,29.89,WNW,287,5.0,11.0,73,0.00,,,1.12,Wunderground v.1.15,2013-06-27 16:24:00,
2013-06-27 12:26:00,85.1,75.9,29.89,ESE,110,4.0,11.0,74,0.00,,,1.12,Wunderground v.1.15,2013-06-27 16:26:00,
2013-06-27 12:28:00,85.2,75.1,29.89,North,6,4.0,12.0,72,0.00,,,1.12,Wunderground v.1.15,2013-06-27 16:28:00,
2013-06-27 12:29:00,85.2,75.1,29.89,East,94,6.0,12.0,72,0.00,,,1.12,Wunderground v.1.15,2013-06-27 16:29:00,
2013-06-27 12:31:00,85.3,76.1,29.89,NNW,328,2.0,7.0,74,0.00,,,1.12,Wunderground v.1.15,2013-06-27 16:31:00,
2013-06-27 12:33:00,85.3,75.2,29.89,NNE,30,5.0,11.0,72,0.00,,,1.12,Wunderground v.1.15,2013-06-27 16:33:00,
2013-06-27 12:34:00,85.3,75.2,29.89,East,82,9.0,11.0,72,0.00,,,1.12,Wunderground v.1.15,2013-06-27 16:34:00,
2013-06-27 12:36:00,85.3,75.2,29.89,East,94,2.0,11.0,72,0.00,,,1.12,Wunderground v.1.15,2013-06-27 16:36:00,
2013-06-27 12:38:00,85.6,75.9,29.89,North,9,6.0,11.0,73,0.00,,,1.12,Wunderground v.1.15,2013-06-27 16:38:00,
2013-06-27 12:39:00,85.6,75.9,29.89,NNE,23,11.0,11.0,73,0.00,,,1.12,Wunderground v.1.15,2013-06-27 16:39:00,
2013-06-27 12:41:00,85.7,75.6,29.88,NNW,337,6.0,8.0,72,0.00,,,1.12,Wunderground v.1.15,2013-06-27 16:41:00,
2013-06-27 12:42:00,85.7,76.0,29.88,ENE,74,6.0,9.0,73,0.00,,,1.12,Wunderground v.1.15,2013-06-27 16:42:00,
2013-06-27 12:43:00,85.7,75.6,29.89,East,96,4.0,9.0,72,0.00,,,1.12,Wunderground v.1.15,2013-06-27 16:43:00,
2013-06-27 12:44:00,85.7,75.6,29.89,NE,49,7.0,9.0,72,0.00,,,1.12,Wunderground v.1.15,2013-06-27 16:44:00,
2013-06-27 12:46:00,85.8,76.1,29.89,SE,128,7.0,14.0,73,0.00,,,1.12,Wunderground v.1.15,2013-06-27 16:46:00,
2013-06-27 12:47:00,85.8,75.7,29.89,ESE,120,6.0,14.0,72,0.00,,,1.12,Wunderground v.1.15,2013-06-27 16:47:00,
2013-06-27 12:48:00,85.9,76.2,29.89,East,85,3.0,14.0,73,0.00,,,1.12,Wunderground v.1.15,2013-06-27 16:48:00,
2013-06-27 12:49:00,85.9,76.2,29.89,ESE,112,0.0,14.0,73,0.00,,,1.12,Wunderground v.1.15,2013-06-27 16:49:00,
2013-06-27 12:51:00,86.0,75.9,29.88,NE,49,7.0,10.0,72,0.00,,,1.12,Wunderground v.1.15,2013-06-27 16:51:00,
2013-06-27 12:52:00,86.0,75.9,29.88,North,1,5.0,12.0,72,0.00,,,1.12,Wunderground v.1.15,2013-06-27 16:52:00,
2013-06-27 12:53:00,86.0,75.5,29.88,East,91,3.0,12.0,71,0.00,,,1.12,Wunderground v.1.15,2013-06-27 16:53:00,
2013-06-27 12:54:00,86.0,75.5,29.88,NE,47,5.0,12.0,71,0.00,,,1.12,Wunderground v.1.15,2013-06-27 16:54:00,
2013-06-27 12:56:00,86.0,75.1,29.88,North,352,12.0,14.0,70,0.00,,,1.12,Wunderground v.1.15,2013-06-27 16:56:00,
2013-06-27 12:57:00,86.0,75.1,29.89,ENE,72,7.0,14.0,70,0.00,,,1.12,Wunderground v.1.15,2013-06-27 16:57:00,
2013-06-27 12:58:00,86.1,75.2,29.89,NNW,340,2.0,14.0,70,0.00,,,1.12,Wunderground v.1.15,2013-06-27 16:58:00,
2013-06-27 12:59:00,86.1,76.0,29.88,NNE,25,5.0,14.0,72,0.00,,,1.12,Wunderground v.1.15,2013-06-27 16:59:00,
2013-06-27 13:01:00,86.2,75.3,29.89,NE,53,8.0,15.0,70,0.00,,,1.12,Wunderground v.1.15,2013-06-27 17:01:00,
2013-06-27 13:02:00,86.2,74.8,29.88,NE,47,10.0,15.0,69,0.00,,,1.12,Wunderground v.1.15,2013-06-27 17:02:00,
2013-06-27 13:03:00,86.2,75.3,29.88,ENE,70,3.0,15.0,70,0.00,,,1.12,Wunderground v.1.15,2013-06-27 17:03:00,
2013-06-27 13:04:00,86.2,75.7,29.88,NNE,29,6.0,15.0,71,0.00,,,1.12,Wunderground v.1.15,2013-06-27 17:04:00,
2013-06-27 13:06:00,86.3,75.8,29.88,North,350,8.0,15.0,71,0.00,,,1.12,Wunderground v.1.15,2013-06-27 17:06:00,
2013-06-27 13:07:00,86.3,76.2,29.88,ESE,108,2.0,15.0,72,0.00,,,1.12,Wunderground v.1.15,2013-06-27 17:07:00,
2013-06-27 13:09:00,86.6,76.5,29.88,NW,305,1.0,15.0,72,0.00,,,1.12,Wunderground v.1.15,2013-06-27 17:09:00,
2013-06-27 13:11:00,86.9,76.4,29.88,NNE,33,6.0,14.0,71,0.00,,,1.12,Wunderground v.1.15,2013-06-27 17:11:00,
2013-06-27 13:12:00,87.0,76.5,29.88,NNW,346,3.0,14.0,71,0.00,,,1.12,Wunderground v.1.15,2013-06-27 17:12:00,
2013-06-27 13:14:00,87.2,76.6,29.88,East,98,5.0,14.0,71,0.00,,,1.12,Wunderground v.1.15,2013-06-27 17:14:00,
2013-06-27 13:15:00,87.2,76.2,29.88,ENE,58,6.0,14.0,70,0.00,,,1.12,Wunderground v.1.15,2013-06-27 17:15:00,
2013-06-27 13:16:00,87.2,76.2,29.88,NNE,30,3.0,14.0,70,0.00,,,1.12,Wunderground v.1.15,2013-06-27 17:16:00,
2013-06-27 13:17:00,87.2,76.6,29.88,NNE,30,5.0,14.0,71,0.00,,,1.12,Wunderground v.1.15,2013-06-27 17:17:00,
2013-06-27 13:18:00,87.3,76.3,29.88,ENE,73,4.0,14.0,70,0.00,,,1.12,Wunderground v.1.15,2013-06-27 17:18:00,
2013-06-27 13:19:00,87.3,75.9,29.88,East,89,5.0,14.0,69,0.00,,,1.12,Wunderground v.1.15,2013-06-27 17:19:00,
2013-06-27 13:20:00,87.2,75.8,29.88,East,82,5.0,5.0,69,0.00,,,1.12,Wunderground v.1.15,2013-06-27 17:20:00,
2013-06-27 13:21:00,87.2,75.3,29.88,ESE,120,3.0,11.0,68,0.00,,,1.12,Wunderground v.1.15,2013-06-27 17:21:00,
2013-06-27 13:23:00,87.1,75.7,29.88,NNE,27,11.0,11.0,69,0.00,,,1.12,Wunderground v.1.15,2013-06-27 17:23:00,
2013-06-27 13:24:00,87.0,75.6,29.88,NNE,33,6.0,11.0,69,0.00,,,1.12,Wunderground v.1.15,2013-06-27 17:24:00,
2013-06-27 13:25:00,86.9,75.9,29.88,NNW,346,3.0,11.0,70,0.00,,,1.12,Wunderground v.1.15,2013-06-27 17:25:00,
2013-06-27 13:26:00,87.0,76.0,29.88,NE,43,5.0,12.0,70,0.00,,,1.12,Wunderground v.1.15,2013-06-27 17:26:00,
2013-06-27 13:28:00,87.0,76.0,29.88,NNE,15,4.0,12.0,70,0.00,,,1.12,Wunderground v.1.15,2013-06-27 17:28:00,
2013-06-27 13:29:00,87.0,75.6,29.88,NW,321,8.0,13.0,69,0.00,,,1.12,Wunderground v.1.15,2013-06-27 17:29:00,
2013-06-27 13:30:00,86.9,75.5,29.88,NNW,335,10.0,13.0,69,0.00,,,1.12,Wunderground v.1.15,2013-06-27 17:30:00,
2013-06-27 13:31:00,86.8,74.5,29.88,ENE,63,6.0,13.0,67,0.00,,,1.12,Wunderground v.1.15,2013-06-27 17:31:00,
2013-06-27 13:33:00,86.8,75.8,29.88,NE,38,1.0,13.0,70,0.00,,,1.12,Wunderground v.1.15,2013-06-27 17:33:00,
2013-06-27 13:34:00,86.9,76.8,29.87,NNE,32,3.0,13.0,72,0.00,,,1.12,Wunderground v.1.15,2013-06-27 17:34:00,
2013-06-27 13:35:00,87.0,75.6,29.87,West,266,2.0,13.0,69,0.00,,,1.12,Wunderground v.1.15,2013-06-27 17:35:00,
2013-06-27 13:37:00,87.5,77.4,29.87,NNW,335,5.0,13.0,72,0.00,,,1.12,Wunderground v.1.15,2013-06-27 17:37:00,
2013-06-27 13:38:00,87.5,76.9,29.87,NNE,20,6.0,13.0,71,0.00,,,1.12,Wunderground v.1.15,2013-06-27 17:38:00,
2013-06-27 13:39:00,87.5,75.6,29.87,North,354,2.0,13.0,68,0.00,,,1.12,Wunderground v.1.15,2013-06-27 17:39:00,
2013-06-27 13:40:00,87.4,76.0,29.87,North,9,8.0,8.0,69,0.00,,,1.12,Wunderground v.1.15,2013-06-27 17:40:00,
2013-06-27 13:42:00,87.2,76.2,29.87,North,11,9.0,9.0,70,0.00,,,1.12,Wunderground v.1.15,2013-06-27 17:42:00,
2013-06-27 13:43:00,87.2,76.2,29.87,ESE,108,5.0,9.0,70,0.00,,,1.12,Wunderground v.1.15,2013-06-27 17:43:00,
2013-06-27 13:44:00,87.1,76.5,29.87,NNE,32,3.0,13.0,71,0.00,,,1.12,Wunderground v.1.15,2013-06-27 17:44:00,
2013-06-27 13:45:00,87.1,76.1,29.87,North,9,3.0,13.0,70,0.00,,,1.12,Wunderground v.1.15,2013-06-27 17:45:00,
2013-06-27 13:47:00,86.8,75.4,29.87,NE,39,8.0,14.0,69,0.00,,,1.12,Wunderground v.1.15,2013-06-27 17:47:00,
2013-06-27 13:48:00,86.7,75.7,29.87,NE,50,9.0,14.0,70,0.00,,,1.12,Wunderground v.1.15,2013-06-27 17:48:00,
2013-06-27 13:49:00,86.6,75.6,29.87,North,354,6.0,14.0,70,0.00,,,1.12,Wunderground v.1.15,2013-06-27 17:49:00,
2013-06-27 13:50:00,86.5,75.5,29.87,North,4,12.0,12.0,70,0.00,,,1.12,Wunderground v.1.15,2013-06-27 17:50:00,
2013-06-27 13:51:00,86.5,75.5,29.87,NE,46,6.0,12.0,70,0.00,,,1.12,Wunderground v.1.15,2013-06-27 17:51:00,
2013-06-27 13:52:00,86.4,75.9,29.87,NNE,12,1.0,12.0,71,0.00,,,1.12,Wunderground v.1.15,2013-06-27 17:52:00,
2013-06-27 13:53:00,86.5,76.0,29.87,North,9,4.0,12.0,71,0.00,,,1.12,Wunderground v.1.15,2013-06-27 17:53:00,
2013-06-27 13:54:00,86.5,76.4,29.87,East,98,7.0,12.0,72,0.00,,,1.12,Wunderground v.1.15,2013-06-27 17:54:00,
2013-06-27 13:55:00,86.5,76.0,29.87,NNE,12,4.0,12.0,71,0.00,,,1.12,Wunderground v.1.15,2013-06-27 17:55:00,
2013-06-27 13:56:00,86.6,76.1,29.87,NE,55,4.0,12.0,71,0.00,,,1.12,Wunderground v.1.15,2013-06-27 17:56:00,
2013-06-27 13:57:00,86.6,75.6,29.87,NNW,327,1.0,12.0,70,0.00,,,1.12,Wunderground v.1.15,2013-06-27 17:57:00,
2013-06-27 13:58:00,86.7,75.7,29.87,NE,39,4.0,12.0,70,0.00,,,1.12,Wunderground v.1.15,2013-06-27 17:58:00,
2013-06-27 13:59:00,86.7,75.7,29.87,ENE,73,3.0,4.0,70,0.00,,,1.12,Wunderground v.1.15,2013-06-27 17:59:00,
2013-06-27 14:00:00,86.7,75.3,29.87,NNE,13,1.0,7.0,69,0.00,,,1.12,Wunderground v.1.15,2013-06-27 18:00:00,
2013-06-27 14:01:00,86.7,75.3,29.87,SE,145,1.0,7.0,69,0.00,,,1.12,Wunderground v.1.15,2013-06-27 18:01:00,
2013-06-27 14:02:00,86.8,76.3,29.87,NE,36,5.0,8.0,71,0.00,,,1.12,Wunderground v.1.15,2013-06-27 18:02:00,
2013-06-27 14:04:00,86.8,75.8,29.87,NNE,30,9.0,12.0,70,0.00,,,1.12,Wunderground v.1.15,2013-06-27 18:04:00,
2013-06-27 14:05:00,86.8,75.8,29.87,NNE,20,8.0,12.0,70,0.00,,,1.12,Wunderground v.1.15,2013-06-27 18:05:00,
2013-06-27 14:06:00,86.8,76.3,29.86,NNW,327,7.0,13.0,71,0.00,,,1.12,Wunderground v.1.15,2013-06-27 18:06:00,
2013-06-27 14:07:00,86.8,75.4,29.87,North,349,5.0,13.0,69,0.00,,,1.12,Wunderground v.1.15,2013-06-27 18:07:00,
2013-06-27 14:09:00,86.8,75.8,29.86,NNW,337,6.0,15.0,70,0.00,,,1.12,Wunderground v.1.15,2013-06-27 18:09:00,
2013-06-27 14:10:00,86.8,75.8,29.86,North,1,9.0,10.0,70,0.00,,,1.12,Wunderground v.1.15,2013-06-27 18:10:00,
2013-06-27 14:11:00,86.9,75.9,29.86,North,3,6.0,10.0,70,0.00,,,1.12,Wunderground v.1.15,2013-06-27 18:11:00,
2013-06-27 14:12:00,87.0,75.6,29.86,NNE,23,7.0,11.0,69,0.00,,,1.12,Wunderground v.1.15,2013-06-27 18:12:00,
2013-06-27 14:14:00,87.0,76.0,29.86,NNE,30,4.0,11.0,70,0.00,,,1.12,Wunderground v.1.15,2013-06-27 18:14:00,
2013-06-27 14:15:00,86.9,75.9,29.86,NNE,22,6.0,11.0,70,0.00,,,1.12,Wunderground v.1.15,2013-06-27 18:15:00,
2013-06-27 14:16:00,86.9,76.4,29.86,NE,53,10.0,12.0,71,0.00,,,1.12,Wunderground v.1.15,2013-06-27 18:16:00,
2013-06-27 14:17:00,86.6,76.1,29.86,NNE,21,7.0,14.0,71,0.00,,,1.12,Wunderground v.1.15,2013-06-27 18:17:00,
2013-06-27 14:19:00,86.3,75.4,29.86,NNW,340,4.0,14.0,70,0.00,,,1.12,Wunderground v.1.15,2013-06-27 18:19:00,
2013-06-27 14:20:00,86.2,75.7,29.86,ENE,58,6.0,9.0,71,0.00,,,1.12,Wunderground v.1.15,2013-06-27 18:20:00,
2013-06-27 14:21:00,86.1,75.6,29.85,NNE,18,3.0,9.0,71,0.00,,,1.12,Wunderground v.1.15,2013-06-27 18:21:00,
2013-06-27 14:22:00,86.1,75.6,29.85,NNE,23,5.0,9.0,71,0.00,,,1.12,Wunderground v.1.15,2013-06-27 18:22:00,
2013-06-27 14:23:00,86.2,76.1,29.85,NNE,28,5.0,9.0,72,0.00,,,1.12,Wunderground v.1.15,2013-06-27 18:23:00,
2013-06-27 14:25:00,86.3,76.2,29.85,NE,50,3.0,9.0,72,0.00,,,1.12,Wunderground v.1.15,2013-06-27 18:25:00,
2013-06-27 14:26:00,86.4,76.3,29.86,ENE,67,2.0,9.0,72,0.00,,,1.12,Wunderground v.1.15,2013-06-27 18:26:00,
2013-06-27 14:27:00,86.5,76.4,29.86,NE,39,7.0,9.0,72,0.00,,,1.12,Wunderground v.1.15,2013-06-27 18:27:00,
2013-06-27 14:28:00,86.6,75.6,29.86,NW,325,4.0,13.0,70,0.00,,,1.12,Wunderground v.1.15,2013-06-27 18:28:00,
2013-06-27 14:30:00,86.6,75.6,29.86,East,82,2.0,5.0,70,0.00,,,1.12,Wunderground v.1.15,2013-06-27 18:30:00,
2013-06-27 14:31:00,86.8,75.8,29.86,NNW,348,5.0,5.0,70,0.00,,,1.12,Wunderground v.1.15,2013-06-27 18:31:00,
2013-06-27 14:32:00,86.9,76.4,29.86,NNE,30,3.0,10.0,71,0.00,,,1.12,Wunderground v.1.15,2013-06-27 18:32:00,
2013-06-27 14:33:00,87.0,75.6,29.86,North,8,2.0,10.0,69,0.00,,,1.12,Wunderground v.1.15,2013-06-27 18:33:00,
2013-06-27 14:35:00,87.1,76.1,29.85,NNE,23,5.0,10.0,70,0.00,,,1.12,Wunderground v.1.15,2013-06-27 18:35:00,
2013-06-27 14:36:00,87.3,76.7,29.85,North,356,1.0,10.0,71,0.00,,,1.12,Wunderground v.1.15,2013-06-27 18:36:00,
2013-06-27 14:37:00,87.4,76.4,29.85,NE,43,5.0,13.0,70,0.00,,,1.12,Wunderground v.1.15,2013-06-27 18:37:00,
2013-06-27 14:39:00,87.3,75.4,29.85,NNE,26,4.0,13.0,68,0.00,,,1.12,Wunderground v.1.15,2013-06-27 18:39:00,
2013-06-27 14:40:00,87.2,75.8,29.85,North,9,6.0,7.0,69,0.00,,,1.12,Wunderground v.1.15,2013-06-27 18:40:00,
2013-06-27 14:41:00,87.2,75.3,29.85,NW,319,9.0,14.0,68,0.00,,,1.12,Wunderground v.1.15,2013-06-27 18:41:00,
2013-06-27 14:42:00,87.1,76.1,29.85,NNW,328,2.0,14.0,70,0.00,,,1.12,Wunderground v.1.15,2013-06-27 18:42:00,
2013-06-27 14:44:00,87.2,76.6,29.86,NNE,30,5.0,14.0,71,0.00,,,1.12,Wunderground v.1.15,2013-06-27 18:44:00,
2013-06-27 14:45:00,87.3,75.9,29.86,NW,321,2.0,14.0,69,0.00,,,1.12,Wunderground v.1.15,2013-06-27 18:45:00,
2013-06-27 14:46:00,87.4,76.4,29.86,NE,52,6.0,14.0,70,0.00,,,1.12,Wunderground v.1.15,2013-06-27 18:46:00,
2013-06-27 14:47:00,87.4,76.0,29.86,NNE,19,5.0,14.0,69,0.00,,,1.12,Wunderground v.1.15,2013-06-27 18:47:00,
2013-06-27 14:48:00,87.4,76.0,29.86,East,84,1.0,14.0,69,0.00,,,1.12,Wunderground v.1.15,2013-06-27 18:48:00,
2013-06-27 14:49:00,87.4,76.0,29.86,ENE,71,1.0,14.0,69,0.00,,,1.12,Wunderground v.1.15,2013-06-27 18:49:00,
2013-06-27 14:50:00,87.5,76.1,29.85,East,92,4.0,10.0,69,0.00,,,1.12,Wunderground v.1.15,2013-06-27 18:50:00,
2013-06-27 14:51:00,87.6,76.6,29.85,ENE,67,5.0,10.0,70,0.00,,,1.12,Wunderground v.1.15,2013-06-27 18:51:00,
2013-06-27 14:52:00,87.7,76.7,29.85,NE,50,4.0,10.0,70,0.00,,,1.12,Wunderground v.1.15,2013-06-27 18:52:00,
2013-06-27 14:53:00,87.8,76.8,29.85,East,79,3.0,10.0,70,0.00,,,1.12,Wunderground v.1.15,2013-06-27 18:53:00,
2013-06-27 14:54:00,87.9,76.9,29.85,NNW,342,10.0,10.0,70,0.00,,,1.12,Wunderground v.1.15,2013-06-27 18:54:00,
2013-06-27 14:55:00,87.9,76.0,29.85,NNE,12,3.0,11.0,68,0.00,,,1.12,Wunderground v.1.15,2013-06-27 18:55:00,
2013-06-27 14:56:00,87.9,76.5,29.85,North,358,5.0,11.0,69,0.00,,,1.12,Wunderground v.1.15,2013-06-27 18:56:00,
2013-06-27 14:57:00,87.8,75.9,29.85,NE,47,7.0,12.0,68,0.00,,,1.12,Wunderground v.1.15,2013-06-27 18:57:00,
2013-06-27 14:58:00,87.7,75.4,29.85,ENE,61,5.0,12.0,67,0.00,,,1.12,Wunderground v.1.15,2013-06-27 18:58:00,
2013-06-27 14:59:00,87.7,75.8,29.85,NNE,30,11.0,12.0,68,0.00,,,1.12,Wunderground v.1.15,2013-06-27 18:59:00,
2013-06-27 15:01:00,87.7,76.3,29.85,ENE,77,6.0,9.0,69,0.00,,,1.12,Wunderground v.1.15,2013-06-27 19:01:00,
2013-06-27 15:03:00,87.6,75.7,29.85,SE,138,10.0,10.0,68,0.00,,,1.12,Wunderground v.1.15,2013-06-27 19:03:00,
2013-06-27 15:05:00,87.5,75.2,29.85,North,1,1.0,11.0,67,0.00,,,1.12,Wunderground v.1.15,2013-06-27 19:05:00,
2013-06-27 15:06:00,87.5,75.2,29.84,SE,125,7.0,11.0,67,0.00,,,1.12,Wunderground v.1.15,2013-06-27 19:06:00,
2013-06-27 15:07:00,87.4,75.1,29.84,NNW,346,8.0,11.0,67,0.00,,,1.12,Wunderground v.1.15,2013-06-27 19:07:00,
2013-06-27 15:08:00,87.3,75.0,29.84,NE,36,4.0,11.0,67,0.00,,,1.12,Wunderground v.1.15,2013-06-27 19:08:00,
2013-06-27 15:10:00,87.3,75.9,29.85,NNE,13,4.0,6.0,69,0.00,,,1.12,Wunderground v.1.15,2013-06-27 19:10:00,
2013-06-27 15:11:00,87.4,76.0,29.84,ENE,73,1.0,8.0,69,0.00,,,1.12,Wunderground v.1.15,2013-06-27 19:11:00,
2013-06-27 15:12:00,87.4,75.5,29.84,NNE,16,6.0,8.0,68,0.00,,,1.12,Wunderground v.1.15,2013-06-27 19:12:00,
2013-06-27 15:13:00,87.5,75.6,29.84,North,352,2.0,8.0,68,0.00,,,1.12,Wunderground v.1.15,2013-06-27 19:13:00,
2013-06-27 15:15:00,87.8,75.5,29.84,NNW,333,1.0,9.0,67,0.00,,,1.12,Wunderground v.1.15,2013-06-27 19:15:00,
2013-06-27 15:16:00,87.9,76.0,29.84,ENE,67,4.0,9.0,68,0.00,,,1.12,Wunderground v.1.15,2013-06-27 19:16:00,
2013-06-27 15:17:00,87.9,76.0,29.84,North,356,5.0,9.0,68,0.00,,,1.12,Wunderground v.1.15,2013-06-27 19:17:00,
2013-06-27 15:18:00,87.9,75.6,29.84,NNE,25,9.0,11.0,67,0.00,,,1.12,Wunderground v.1.15,2013-06-27 19:18:00,
2013-06-27 15:20:00,88.0,77.0,29.84,NNE,23,10.0,11.0,70,0.00,,,1.12,Wunderground v.1.15,2013-06-27 19:20:00,
2013-06-27 15:21:00,87.9,76.5,29.84,NE,50,5.0,12.0,69,0.00,,,1.12,Wunderground v.1.15,2013-06-27 19:21:00,
2013-06-27 15:22:00,88.0,76.5,29.84,North,8,2.0,12.0,69,0.00,,,1.12,Wunderground v.1.15,2013-06-27 19:22:00,
2013-06-27 15:23:00,87.9,76.5,29.84,NNW,333,2.0,12.0,69,0.00,,,1.12,Wunderground v.1.15,2013-06-27 19:23:00,
2013-06-27 15:25:00,88.0,76.1,29.84,NE,46,3.0,12.0,68,0.00,,,1.12,Wunderground v.1.15,2013-06-27 19:25:00,
2013-06-27 15:26:00,88.0,76.1,29.84,NNE,21,7.0,12.0,68,0.00,,,1.12,Wunderground v.1.15,2013-06-27 19:26:00,
2013-06-27 15:28:00,87.9,76.0,29.84,NW,325,2.0,12.0,68,0.00,,,1.12,Wunderground v.1.15,2013-06-27 19:28:00,
2013-06-27 15:30:00,88.0,77.0,29.84,West,267,1.0,5.0,70,0.00,,,1.12,Wunderground v.1.15,2013-06-27 19:30:00,
2013-06-27 15:31:00,88.1,77.1,29.84,North,4,4.0,8.0,70,0.00,,,1.12,Wunderground v.1.15,2013-06-27 19:31:00,
2013-06-27 15:33:00,88.3,76.8,29.84,WSW,250,1.0,8.0,69,0.00,,,1.12,Wunderground v.1.15,2013-06-27 19:33:00,
2013-06-27 15:35:00,88.3,76.4,29.84,North,356,3.0,13.0,68,0.00,,,1.12,Wunderground v.1.15,2013-06-27 19:35:00,
2013-06-27 15:36:00,88.2,76.7,29.83,ESE,103,4.0,13.0,69,0.00,,,1.12,Wunderground v.1.15,2013-06-27 19:36:00,
2013-06-27 15:38:00,88.1,76.2,29.83,North,6,8.0,13.0,68,0.00,,,1.12,Wunderground v.1.15,2013-06-27 19:38:00,
2013-06-27 15:39:00,88.1,76.2,29.83,NNE,15,2.0,13.0,68,0.00,,,1.12,Wunderground v.1.15,2013-06-27 19:39:00,
2013-06-27 15:40:00,87.9,76.0,29.83,ENE,70,3.0,5.0,68,0.00,,,1.12,Wunderground v.1.15,2013-06-27 19:40:00,
2013-06-27 15:41:00,87.9,76.0,29.83,NE,46,5.0,8.0,68,0.00,,,1.12,Wunderground v.1.15,2013-06-27 19:41:00,
2013-06-27 15:43:00,87.9,76.0,29.83,East,94,9.0,9.0,68,0.00,,,1.12,Wunderground v.1.15,2013-06-27 19:43:00,
2013-06-27 15:44:00,87.9,76.5,29.83,East,89,3.0,10.0,69,0.00,,,1.12,Wunderground v.1.15,2013-06-27 19:44:00,
2013-06-27 15:46:00,87.9,76.0,29.83,ESE,120,5.0,11.0,68,0.00,,,1.12,Wunderground v.1.15,2013-06-27 19:46:00,
2013-06-27 15:48:00,87.9,75.6,29.83,NNW,343,8.0,11.0,67,0.00,,,1.12,Wunderground v.1.15,2013-06-27 19:48:00,
2013-06-27 15:49:00,87.9,75.6,29.83,NNE,24,5.0,11.0,67,0.00,,,1.12,Wunderground v.1.15,2013-06-27 19:49:00,
2013-06-27 15:50:00,88.0,76.5,29.83,NE,43,6.0,7.0,69,0.00,,,1.12,Wunderground v.1.15,2013-06-27 19:50:00,
2013-06-27 15:51:00,88.1,76.2,29.83,NE,50,5.0,7.0,68,0.00,,,1.12,Wunderground v.1.15,2013-06-27 19:51:00,
2013-06-27 15:53:00,88.1,76.6,29.83,NE,43,6.0,7.0,69,0.00,,,1.12,Wunderground v.1.15,2013-06-27 19:53:00,
2013-06-27 15:54:00,88.1,75.8,29.82,NNE,15,9.0,12.0,67,0.00,,,1.12,Wunderground v.1.15,2013-06-27 19:54:00,
2013-06-27 15:55:00,88.1,75.8,29.83,NNW,346,4.0,12.0,67,0.00,,,1.12,Wunderground v.1.15,2013-06-27 19:55:00,
2013-06-27 15:57:00,88.1,76.2,29.82,NE,42,8.0,12.0,68,0.00,,,1.12,Wunderground v.1.15,2013-06-27 19:57:00,
2013-06-27 15:58:00,88.1,75.8,29.82,NE,54,7.0,12.0,67,0.00,,,1.12,Wunderground v.1.15,2013-06-27 19:58:00,
2013-06-27 15:59:00,88.1,75.8,29.82,NE,48,5.0,5.0,67,0.00,,,1.12,Wunderground v.1.15,2013-06-27 19:59:00,
2013-06-27 16:00:00,88.1,75.8,29.82,NE,51,5.0,5.0,67,0.00,,,1.12,Wunderground v.1.15,2013-06-27 20:00:00,
2013-06-27 16:02:00,88.2,75.4,29.82,NNW,346,9.0,12.0,66,0.00,,,1.12,Wunderground v.1.15,2013-06-27 20:02:00,
2013-06-27 16:03:00,88.2,76.3,29.82,NNW,330,4.0,14.0,68,0.00,,,1.12,Wunderground v.1.15,2013-06-27 20:03:00,
2013-06-27 16:05:00,88.3,76.4,29.82,NE,44,5.0,14.0,68,0.00,,,1.12,Wunderground v.1.15,2013-06-27 20:05:00,
2013-06-27 16:06:00,88.4,76.9,29.82,ENE,70,5.0,14.0,69,0.00,,,1.12,Wunderground v.1.15,2013-06-27 20:06:00,
2013-06-27 16:07:00,88.4,76.0,29.82,SSE,153,3.0,14.0,67,0.00,,,1.12,Wunderground v.1.15,2013-06-27 20:07:00,
2013-06-27 16:09:00,88.3,75.5,29.82,East,98,5.0,14.0,66,0.00,,,1.12,Wunderground v.1.15,2013-06-27 20:09:00,
2013-06-27 16:10:00,88.2,75.9,29.82,East,96,4.0,6.0,67,0.00,,,1.12,Wunderground v.1.15,2013-06-27 20:10:00,
2013-06-27 16:11:00,88.2,75.9,29.82,NE,38,2.0,6.0,67,0.00,,,1.12,Wunderground v.1.15,2013-06-27 20:11:00,
2013-06-27 16:12:00,88.3,76.4,29.82,NNE,33,7.0,7.0,68,0.00,,,1.12,Wunderground v.1.15,2013-06-27 20:12:00,
2013-06-27 16:14:00,88.1,75.3,29.82,NE,56,2.0,12.0,66,0.00,,,1.12,Wunderground v.1.15,2013-06-27 20:14:00,
2013-06-27 16:15:00,88.1,75.8,29.82,North,352,3.0,12.0,67,0.00,,,1.12,Wunderground v.1.15,2013-06-27 20:15:00,
2013-06-27 16:16:00,88.1,75.8,29.82,ESE,115,4.0,12.0,67,0.00,,,1.12,Wunderground v.1.15,2013-06-27 20:16:00,
2013-06-27 16:17:00,88.1,76.2,29.82,North,354,6.0,12.0,68,0.00,,,1.12,Wunderground v.1.15,2013-06-27 20:17:00,
2013-06-27 16:19:00,87.9,75.6,29.82,North,355,6.0,12.0,67,0.00,,,1.12,Wunderground v.1.15,2013-06-27 20:19:00,
2013-06-27 16:20:00,87.8,75.5,29.82,NNE,33,6.0,14.0,67,0.00,,,1.12,Wunderground v.1.15,2013-06-27 20:20:00,
2013-06-27 16:21:00,87.8,75.5,29.82,NNE,17,10.0,14.0,67,0.00,,,1.12,Wunderground v.1.15,2013-06-27 20:21:00,
2013-06-27 16:22:00,87.6,75.3,29.82,NE,47,6.0,14.0,67,0.00,,,1.12,Wunderground v.1.15,2013-06-27 20:22:00,
2013-06-27 16:24:00,87.4,76.4,29.81,NNE,19,10.0,14.0,70,0.00,,,1.12,Wunderground v.1.15,2013-06-27 20:24:00,
2013-06-27 16:25:00,87.4,75.5,29.82,NNW,333,8.0,14.0,68,0.00,,,1.12,Wunderground v.1.15,2013-06-27 20:25:00,
2013-06-27 16:26:00,87.4,75.5,29.82,NNW,333,6.0,14.0,68,0.00,,,1.12,Wunderground v.1.15,2013-06-27 20:26:00,
2013-06-27 16:27:00,87.4,76.0,29.82,North,6,5.0,14.0,69,0.00,,,1.12,Wunderground v.1.15,2013-06-27 20:27:00,
2013-06-27 16:28:00,87.4,76.0,29.82,South,176,2.0,14.0,69,0.00,,,1.12,Wunderground v.1.15,2013-06-27 20:28:00,
2013-06-27 16:30:00,87.5,75.6,29.82,SE,125,2.0,14.0,68,0.00,,,1.12,Wunderground v.1.15,2013-06-27 20:30:00,
2013-06-27 16:31:00,87.5,75.6,29.82,NE,56,3.0,8.0,68,0.00,,,1.12,Wunderground v.1.15,2013-06-27 20:31:00,
2013-06-27 16:34:00,87.5,75.2,29.82,NE,41,9.0,9.0,67,0.00,,,1.12,Wunderground v.1.15,2013-06-27 20:34:00,
2013-06-27 16:35:00,87.3,75.0,29.82,East,79,7.0,9.0,67,0.00,,,1.12,Wunderground v.1.15,2013-06-27 20:35:00,
2013-06-27 16:36:00,87.2,74.9,29.82,NNE,23,12.0,12.0,67,0.00,,,1.12,Wunderground v.1.15,2013-06-27 20:36:00,
2013-06-27 16:39:00,87.1,75.3,29.81,ENE,60,11.0,11.0,68,0.00,,,1.12,Wunderground v.1.15,2013-06-27 20:39:00,
2013-06-27 16:40:00,87.0,75.2,29.81,NE,41,13.0,13.0,68,0.00,,,1.12,Wunderground v.1.15,2013-06-27 20:40:00,
2013-06-27 16:42:00,87.0,75.2,29.81,NNE,20,9.0,13.0,68,0.00,,,1.12,Wunderground v.1.15,2013-06-27 20:42:00,
2013-06-27 16:45:00,87.0,75.6,29.81,East,89,5.0,13.0,69,0.00,,,1.12,Wunderground v.1.15,2013-06-27 20:45:00,
2013-06-27 16:47:00,87.2,75.8,29.81,NE,53,3.0,13.0,69,0.00,,,1.12,Wunderground v.1.15,2013-06-27 20:47:00,
2013-06-27 16:49:00,87.3,75.4,29.81,East,98,4.0,13.0,68,0.00,,,1.12,Wunderground v.1.15,2013-06-27 20:49:00,
2013-06-27 16:50:00,87.4,76.0,29.81,ESE,114,6.0,10.0,69,0.00,,,1.12,Wunderground v.1.15,2013-06-27 20:50:00,
2013-06-27 16:52:00,87.3,75.0,29.80,NNE,15,5.0,11.0,67,0.00,,,1.12,Wunderground v.1.15,2013-06-27 20:52:00,
2013-06-27 16:54:00,87.2,75.3,29.80,NNE,20,6.0,11.0,68,0.00,,,1.12,Wunderground v.1.15,2013-06-27 20:54:00,
2013-06-27 16:55:00,87.1,75.3,29.80,ENE,58,6.0,11.0,68,0.00,,,1.12,Wunderground v.1.15,2013-06-27 20:55:00,
2013-06-27 16:56:00,87.1,75.3,29.80,NNE,18,5.0,11.0,68,0.00,,,1.12,Wunderground v.1.15,2013-06-27 20:56:00,
2013-06-27 16:58:00,87.1,75.7,29.80,NE,44,5.0,11.0,69,0.00,,,1.12,Wunderground v.1.15,2013-06-27 20:58:00,
2013-06-27 17:00:00,87.2,75.8,29.80,NE,41,5.0,5.0,69,0.00,,,1.12,Wunderground v.1.15,2013-06-27 21:00:00,
2013-06-27 17:01:00,87.2,75.3,29.80,NNE,32,5.0,7.0,68,0.00,,,1.12,Wunderground v.1.15,2013-06-27 21:01:00,
2013-06-27 17:05:00,87.1,76.1,29.80,ENE,74,4.0,12.0,70,0.00,,,1.12,Wunderground v.1.15,2013-06-27 21:05:00,
2013-06-27 17:06:00,87.1,76.1,29.80,ENE,67,3.0,12.0,70,0.00,,,1.12,Wunderground v.1.15,2013-06-27 21:06:00,
2013-06-27 17:11:00,87.2,75.8,29.80,NE,41,6.0,6.0,69,0.00,,,1.12,Wunderground v.1.15,2013-06-27 21:11:00,
2013-06-27 17:12:00,87.2,75.8,29.79,NNE,22,5.0,6.0,69,0.00,,,1.12,Wunderground v.1.15,2013-06-27 21:12:00,
2013-06-27 17:13:00,87.2,75.8,29.79,NNW,335,4.0,6.0,69,0.00,,,1.12,Wunderground v.1.15,2013-06-27 21:13:00,
2013-06-27 17:16:00,87.1,75.7,29.79,NE,46,3.0,9.0,69,0.00,,,1.12,Wunderground v.1.15,2013-06-27 21:16:00,
2013-06-27 17:18:00,87.2,75.3,29.79,ENE,58,4.0,9.0,68,0.00,,,1.12,Wunderground v.1.15,2013-06-27 21:18:00,
2013-06-27 17:23:00,87.3,75.4,29.80,NE,36,4.0,8.0,68,0.00,,,1.12,Wunderground v.1.15,2013-06-27 21:23:00,
2013-06-27 17:24:00,87.3,75.4,29.80,NE,46,5.0,8.0,68,0.00,,,1.12,Wunderground v.1.15,2013-06-27 21:24:00,
2013-06-27 17:28:00,87.3,75.4,29.79,ENE,71,7.0,9.0,68,0.00,,,1.12,Wunderground v.1.15,2013-06-27 21:28:00,
2013-06-27 17:30:00,87.2,75.8,29.79,North,353,3.0,5.0,69,0.00,,,1.12,Wunderground v.1.15,2013-06-27 21:30:00,
2013-06-27 17:33:00,87.2,75.8,29.79,NE,36,12.0,14.0,69,0.00,,,1.12,Wunderground v.1.15,2013-06-27 21:33:00,
2013-06-27 17:35:00,87.2,75.8,29.79,ENE,63,8.0,14.0,69,0.00,,,1.12,Wunderground v.1.15,2013-06-27 21:35:00,
2013-06-27 17:38:00,87.0,75.2,29.79,NNE,12,3.0,14.0,68,0.00,,,1.12,Wunderground v.1.15,2013-06-27 21:38:00,
2013-06-27 17:39:00,87.0,75.2,29.79,North,360,2.0,14.0,68,0.00,,,1.12,Wunderground v.1.15,2013-06-27 21:39:00,
2013-06-27 17:41:00,87.0,75.6,29.79,North,4,5.0,7.0,69,0.00,,,1.12,Wunderground v.1.15,2013-06-27 21:41:00,
2013-06-27 17:44:00,87.0,76.0,29.80,NW,321,4.0,7.0,70,0.00,,,1.12,Wunderground v.1.15,2013-06-27 21:44:00,
2013-06-27 17:46:00,87.0,76.0,29.80,NE,41,5.0,7.0,70,0.00,,,1.12,Wunderground v.1.15,2013-06-27 21:46:00,
2013-06-27 17:47:00,87.0,76.0,29.80,NNE,19,7.0,7.0,70,0.00,,,1.12,Wunderground v.1.15,2013-06-27 21:47:00,
2013-06-27 17:49:00,87.0,76.5,29.80,ENE,61,3.0,7.0,71,0.00,,,1.12,Wunderground v.1.15,2013-06-27 21:49:00,
2013-06-27 17:50:00,87.1,76.1,29.80,ENE,60,10.0,10.0,70,0.00,,,1.12,Wunderground v.1.15,2013-06-27 21:50:00,
2013-06-27 17:52:00,87.0,75.6,29.80,ENE,61,4.0,10.0,69,0.00,,,1.12,Wunderground v.1.15,2013-06-27 21:52:00,
2013-06-27 17:54:00,87.0,76.0,29.79,NE,39,8.0,10.0,70,0.00,,,1.12,Wunderground v.1.15,2013-06-27 21:54:00,
2013-06-27 17:56:00,87.0,76.0,29.79,NW,322,2.0,11.0,70,0.00,,,1.12,Wunderground v.1.15,2013-06-27 21:56:00,
2013-06-27 17:57:00,86.9,75.9,29.79,NE,36,3.0,11.0,70,0.00,,,1.12,Wunderground v.1.15,2013-06-27 21:57:00,
2013-06-27 17:59:00,86.9,75.9,29.79,NNE,30,6.0,6.0,70,0.00,,,1.12,Wunderground v.1.15,2013-06-27 21:59:00,
2013-06-27 18:01:00,86.8,75.4,29.79,East,79,6.0,6.0,69,0.00,,,1.12,Wunderground v.1.15,2013-06-27 22:01:00,
2013-06-27 18:03:00,86.8,75.8,29.79,NW,316,2.0,11.0,70,0.00,,,1.12,Wunderground v.1.15,2013-06-27 22:03:00,
2013-06-27 18:05:00,86.7,75.7,29.79,NNW,338,5.0,12.0,70,0.00,,,1.12,Wunderground v.1.15,2013-06-27 22:05:00,
2013-06-27 18:06:00,86.7,75.7,29.79,NNE,20,8.0,12.0,70,0.00,,,1.12,Wunderground v.1.15,2013-06-27 22:06:00,
2013-06-27 18:08:00,86.6,75.6,29.79,North,359,8.0,12.0,70,0.00,,,1.12,Wunderground v.1.15,2013-06-27 22:08:00,
2013-06-27 18:11:00,86.5,76.0,29.79,NE,56,4.0,11.0,71,0.00,,,1.12,Wunderground v.1.15,2013-06-27 22:11:00,
2013-06-27 18:12:00,86.5,76.0,29.79,NNE,19,3.0,11.0,71,0.00,,,1.12,Wunderground v.1.15,2013-06-27 22:12:00,
2013-06-27 18:13:00,86.5,76.0,29.79,ENE,58,8.0,11.0,71,0.00,,,1.12,Wunderground v.1.15,2013-06-27 22:13:00,
2013-06-27 18:16:00,86.5,76.0,29.79,ENE,77,6.0,11.0,71,0.00,,,1.12,Wunderground v.1.15,2013-06-27 22:16:00,
2013-06-27 18:17:00,86.5,76.0,29.79,ENE,63,2.0,11.0,71,0.00,,,1.12,Wunderground v.1.15,2013-06-27 22:17:00,
2013-06-27 18:18:00,86.6,76.1,29.79,North,356,8.0,11.0,71,0.00,,,1.12,Wunderground v.1.15,2013-06-27 22:18:00,
2013-06-27 18:21:00,86.5,76.0,29.78,East,80,4.0,7.0,71,0.00,,,1.12,Wunderground v.1.15,2013-06-27 22:21:00,
2013-06-27 18:23:00,86.5,76.4,29.78,SE,133,2.0,7.0,72,0.00,,,1.12,Wunderground v.1.15,2013-06-27 22:23:00,
2013-06-27 18:27:00,86.4,75.9,29.78,NNW,333,4.0,13.0,71,0.00,,,1.12,Wunderground v.1.15,2013-06-27 22:27:00,
2013-06-27 18:28:00,86.3,75.8,29.78,ESE,107,5.0,13.0,71,0.00,,,1.12,Wunderground v.1.15,2013-06-27 22:28:00,
2013-06-27 18:32:00,86.0,75.9,29.78,NE,38,1.0,15.0,72,0.00,,,1.12,Wunderground v.1.15,2013-06-27 22:32:00,
2013-06-27 18:33:00,86.0,76.3,29.77,NE,44,4.0,15.0,73,0.00,,,1.12,Wunderground v.1.15,2013-06-27 22:33:00,
2013-06-27 18:34:00,86.0,76.3,29.77,North,353,6.0,15.0,73,0.00,,,1.12,Wunderground v.1.15,2013-06-27 22:34:00,
2013-06-27 18:38:00,86.0,76.3,29.77,North,9,7.0,15.0,73,0.00,,,1.12,Wunderground v.1.15,2013-06-27 22:38:00,
2013-06-27 18:39:00,86.0,76.3,29.77,NNE,19,6.0,15.0,73,0.00,,,1.12,Wunderground v.1.15,2013-06-27 22:39:00,
2013-06-27 18:44:00,85.9,76.2,29.77,North,1,6.0,8.0,73,0.00,,,1.12,Wunderground v.1.15,2013-06-27 22:44:00,
2013-06-27 18:45:00,85.9,76.6,29.77,NNE,22,1.0,8.0,74,0.00,,,1.12,Wunderground v.1.15,2013-06-27 22:45:00,
2013-06-27 18:49:00,85.8,76.1,29.77,NE,39,4.0,8.0,73,0.00,,,1.12,Wunderground v.1.15,2013-06-27 22:49:00,
2013-06-27 18:50:00,85.8,76.1,29.77,East,98,7.0,7.0,73,0.00,,,1.12,Wunderground v.1.15,2013-06-27 22:50:00,
2013-06-27 18:51:00,85.8,76.1,29.77,NNE,25,3.0,7.0,73,0.00,,,1.12,Wunderground v.1.15,2013-06-27 22:51:00,
2013-06-27 18:55:00,85.6,76.4,29.78,ESE,123,3.0,10.0,74,0.00,,,1.12,Wunderground v.1.15,2013-06-27 22:55:00,
2013-06-27 18:56:00,85.6,76.4,29.78,NW,304,1.0,10.0,74,0.00,,,1.12,Wunderground v.1.15,2013-06-27 22:56:00,
2013-06-27 18:57:00,85.6,76.4,29.78,NNE,17,2.0,10.0,74,0.00,,,1.12,Wunderground v.1.15,2013-06-27 22:57:00,
2013-06-27 19:00:00,85.5,76.7,29.78,NE,53,4.0,4.0,75,0.00,,,1.12,Wunderground v.1.15,2013-06-27 23:00:00,
2013-06-27 19:01:00,85.5,76.7,29.78,ENE,58,7.0,7.0,75,0.00,,,1.12,Wunderground v.1.15,2013-06-27 23:01:00,
2013-06-27 19:02:00,85.4,76.6,29.78,East,96,7.0,8.0,75,0.00,,,1.12,Wunderground v.1.15,2013-06-27 23:02:00,
2013-06-27 19:06:00,85.1,76.3,29.79,North,5,7.0,9.0,75,0.00,,,1.12,Wunderground v.1.15,2013-06-27 23:06:00,
2013-06-27 19:07:00,85.1,76.3,29.79,ENE,77,8.0,9.0,75,0.00,,,1.12,Wunderground v.1.15,2013-06-27 23:07:00,
2013-06-27 19:12:00,85.0,76.2,29.79,North,360,6.0,7.0,75,0.00,,,1.12,Wunderground v.1.15,2013-06-27 23:12:00,
2013-06-27 19:14:00,84.8,76.0,29.79,NE,43,4.0,7.0,75,0.00,,,1.12,Wunderground v.1.15,2013-06-27 23:14:00,
2013-06-27 19:17:00,84.6,76.2,29.79,NNE,33,4.0,7.0,76,0.00,,,1.12,Wunderground v.1.15,2013-06-27 23:17:00,
2013-06-27 19:18:00,84.5,76.1,29.79,North,356,4.0,7.0,76,0.00,,,1.12,Wunderground v.1.15,2013-06-27 23:18:00,
2013-06-27 19:19:00,84.4,76.4,29.79,ESE,108,5.0,7.0,77,0.00,,,1.12,Wunderground v.1.15,2013-06-27 23:19:00,
2013-06-27 19:22:00,84.2,76.2,29.79,North,356,3.0,6.0,77,0.00,,,1.12,Wunderground v.1.15,2013-06-27 23:22:00,
2013-06-27 19:23:00,84.1,76.1,29.79,NNE,32,2.0,6.0,77,0.00,,,1.12,Wunderground v.1.15,2013-06-27 23:23:00,
2013-06-27 19:24:00,84.1,76.1,29.80,NNE,30,2.0,6.0,77,0.00,,,1.12,Wunderground v.1.15,2013-06-27 23:24:00,
2013-06-27 19:28:00,83.8,76.2,29.80,NNW,342,2.0,6.0,78,0.00,,,1.12,Wunderground v.1.15,2013-06-27 23:28:00,
2013-06-27 19:29:00,83.7,76.1,29.80,ESE,106,4.0,7.0,78,0.00,,,1.12,Wunderground v.1.15,2013-06-27 23:29:00,
2013-06-27 19:33:00,83.5,75.9,29.80,East,94,4.0,5.0,78,0.00,,,1.12,Wunderground v.1.15,2013-06-27 23:33:00,
2013-06-27 19:34:00,83.5,75.9,29.80,East,90,3.0,6.0,78,0.00,,,1.12,Wunderground v.1.15,2013-06-27 23:34:00,
2013-06-27 19:38:00,83.3,75.7,29.80,NNE,27,5.0,6.0,78,0.00,,,1.12,Wunderground v.1.15,2013-06-27 23:38:00,
2013-06-27 19:39:00,83.2,76.0,29.80,NNE,19,5.0,6.0,79,0.00,,,1.12,Wunderground v.1.15,2013-06-27 23:39:00,
2013-06-27 19:41:00,83.2,76.0,29.79,NE,36,5.0,5.0,79,0.00,,,1.12,Wunderground v.1.15,2013-06-27 23:41:00,
2013-06-27 19:42:00,83.1,75.9,29.79,ESE,113,1.0,5.0,79,0.00,,,1.12,Wunderground v.1.15,2013-06-27 23:42:00,
2013-06-27 19:43:00,83.0,75.8,29.80,East,81,2.0,5.0,79,0.00,,,1.12,Wunderground v.1.15,2013-06-27 23:43:00,
2013-06-27 19:45:00,83.0,75.8,29.79,North,6,2.0,5.0,79,0.00,,,1.12,Wunderground v.1.15,2013-06-27 23:45:00,
2013-06-27 19:46:00,83.0,75.8,29.80,ESE,113,3.0,5.0,79,0.00,,,1.12,Wunderground v.1.15,2013-06-27 23:46:00,
2013-06-27 19:47:00,82.9,76.1,29.80,NNE,30,0.0,5.0,80,0.00,,,1.12,Wunderground v.1.15,2013-06-27 23:47:00,
2013-06-27 19:49:00,82.9,75.7,29.80,NNE,32,2.0,5.0,79,0.00,,,1.12,Wunderground v.1.15,2013-06-27 23:49:00,
2013-06-27 19:50:00,82.8,75.6,29.80,NE,53,4.0,6.0,79,0.00,,,1.12,Wunderground v.1.15,2013-06-27 23:50:00,
2013-06-27 19:51:00,82.8,75.6,29.80,NNE,18,5.0,6.0,79,0.00,,,1.12,Wunderground v.1.15,2013-06-27 23:51:00,
2013-06-27 19:53:00,82.8,75.6,29.80,NNE,26,4.0,6.0,79,0.00,,,1.12,Wunderground v.1.15,2013-06-27 23:53:00,
2013-06-27 19:54:00,82.8,75.6,29.80,NNE,17,4.0,6.0,79,0.00,,,1.12,Wunderground v.1.15,2013-06-27 23:54:00,
2013-06-27 19:56:00,82.7,75.5,29.80,East,84,5.0,6.0,79,0.00,,,1.12,Wunderground v.1.15,2013-06-27 23:56:00,
2013-06-27 19:58:00,82.7,75.5,29.80,NE,50,3.0,6.0,79,0.00,,,1.12,Wunderground v.1.15,2013-06-27 23:58:00,
2013-06-27 20:01:00,82.6,75.8,29.80,NNW,336,1.0,3.0,80,0.00,,,1.12,Wunderground v.1.15,2013-06-28 00:01:00,
2013-06-27 20:02:00,82.6,75.8,29.80,ENE,65,2.0,4.0,80,0.00,,,1.12,Wunderground v.1.15,2013-06-28 00:02:00,
2013-06-27 20:04:00,82.5,75.7,29.80,North,6,3.0,4.0,80,0.00,,,1.12,Wunderground v.1.15,2013-06-28 00:04:00,
2013-06-27 20:06:00,82.4,75.6,29.81,NE,36,2.0,4.0,80,0.00,,,1.12,Wunderground v.1.15,2013-06-28 00:06:00,
2013-06-27 20:08:00,82.3,75.5,29.81,ENE,67,0.0,4.0,80,0.00,,,1.12,Wunderground v.1.15,2013-06-28 00:08:00,
2013-06-27 20:11:00,82.2,75.4,29.80,NE,38,3.0,5.0,80,0.00,,,1.12,Wunderground v.1.15,2013-06-28 00:11:00,
2013-06-27 20:13:00,82.1,75.3,29.80,NNE,29,4.0,5.0,80,0.00,,,1.12,Wunderground v.1.15,2013-06-28 00:13:00,
2013-06-27 20:14:00,82.1,75.7,29.80,ESE,122,1.0,5.0,81,0.00,,,1.12,Wunderground v.1.15,2013-06-28 00:14:00,
2013-06-27 20:16:00,82.1,75.7,29.81,NE,36,0.0,5.0,81,0.00,,,1.12,Wunderground v.1.15,2013-06-28 00:16:00,
2013-06-27 20:18:00,82.0,75.6,29.80,North,352,2.0,5.0,81,0.00,,,1.12,Wunderground v.1.15,2013-06-28 00:18:00,
2013-06-27 20:19:00,81.9,75.5,29.81,NE,44,1.0,5.0,81,0.00,,,1.12,Wunderground v.1.15,2013-06-28 00:19:00,
2013-06-27 20:21:00,81.9,75.5,29.80,North,5,2.0,2.0,81,0.00,,,1.12,Wunderground v.1.15,2013-06-28 00:21:00,
2013-06-27 20:23:00,81.8,75.4,29.80,NNE,23,2.0,3.0,81,0.00,,,1.12,Wunderground v.1.15,2013-06-28 00:23:00,
2013-06-27 20:25:00,81.8,75.4,29.80,North,11,0.0,3.0,81,0.00,,,1.12,Wunderground v.1.15,2013-06-28 00:25:00,
2013-06-27 20:26:00,81.7,75.7,29.80,NE,41,1.0,3.0,82,0.00,,,1.12,Wunderground v.1.15,2013-06-28 00:26:00,
2013-06-27 20:29:00,81.6,75.6,29.80,ESE,113,1.0,4.0,82,0.00,,,1.12,Wunderground v.1.15,2013-06-28 00:29:00,
2013-06-27 20:30:00,81.5,75.5,29.80,East,81,2.0,2.0,82,0.00,,,1.12,Wunderground v.1.15,2013-06-28 00:30:00,
2013-06-27 20:33:00,81.3,75.3,29.80,NE,40,2.0,3.0,82,0.00,,,1.12,Wunderground v.1.15,2013-06-28 00:33:00,
2013-06-27 20:34:00,81.3,75.3,29.80,ENE,68,3.0,3.0,82,0.00,,,1.12,Wunderground v.1.15,2013-06-28 00:34:00,
2013-06-27 20:36:00,81.1,75.1,29.80,NE,53,1.0,3.0,82,0.00,,,1.12,Wunderground v.1.15,2013-06-28 00:36:00,
2013-06-27 20:39:00,81.0,75.3,29.80,NE,36,3.0,3.0,83,0.00,,,1.12,Wunderground v.1.15,2013-06-28 00:39:00,
2013-06-27 20:41:00,80.9,75.2,29.80,East,82,2.0,4.0,83,0.00,,,1.12,Wunderground v.1.15,2013-06-28 00:41:00,
2013-06-27 20:42:00,80.9,75.2,29.80,East,82,1.0,4.0,83,0.00,,,1.12,Wunderground v.1.15,2013-06-28 00:42:00,
2013-06-27 20:44:00,80.8,75.2,29.80,NE,46,1.0,4.0,83,0.00,,,1.12,Wunderground v.1.15,2013-06-28 00:44:00,
2013-06-27 20:46:00,80.7,75.1,29.80,NE,50,0.0,4.0,83,0.00,,,1.12,Wunderground v.1.15,2013-06-28 00:46:00,
2013-06-27 20:47:00,80.6,75.0,29.80,ENE,71,0.0,4.0,83,0.00,,,1.12,Wunderground v.1.15,2013-06-28 00:47:00,
2013-06-27 20:50:00,80.5,75.2,29.80,North,359,1.0,1.0,84,0.00,,,1.12,Wunderground v.1.15,2013-06-28 00:50:00,
2013-06-27 20:53:00,80.4,75.1,29.80,East,88,0.0,3.0,84,0.00,,,1.12,Wunderground v.1.15,2013-06-28 00:53:00,
2013-06-27 20:54:00,80.4,75.1,29.80,East,87,1.0,3.0,84,0.00,,,1.12,Wunderground v.1.15,2013-06-28 00:54:00,
2013-06-27 20:56:00,80.3,75.0,29.80,ENE,68,2.0,4.0,84,0.00,,,1.12,Wunderground v.1.15,2013-06-28 00:56:00,
2013-06-27 20:59:00,80.3,75.0,29.80,SE,145,1.0,4.0,84,0.00,,,1.12,Wunderground v.1.15,2013-06-28 00:59:00,
2013-06-27 21:01:00,80.2,74.9,29.81,ESE,114,3.0,4.0,84,0.00,,,1.12,Wunderground v.1.15,2013-06-28 01:01:00,
2013-06-27 21:05:00,80.1,74.8,29.81,SE,140,0.0,4.0,84,0.00,,,1.12,Wunderground v.1.15,2013-06-28 01:05:00,
2013-06-27 21:06:00,80.1,74.8,29.81,WNW,283,1.0,4.0,84,0.00,,,1.12,Wunderground v.1.15,2013-06-28 01:06:00,
2013-06-27 21:10:00,80.0,74.7,29.81,NE,38,0.0,1.0,84,0.00,,,1.12,Wunderground v.1.15,2013-06-28 01:10:00,
2013-06-27 21:11:00,80.0,74.7,29.81,East,94,2.0,3.0,84,0.00,,,1.12,Wunderground v.1.15,2013-06-28 01:11:00,
2013-06-27 21:12:00,80.0,74.7,29.81,SE,145,1.0,3.0,84,0.00,,,1.12,Wunderground v.1.15,2013-06-28 01:12:00,
2013-06-27 21:15:00,80.0,74.7,29.81,ESE,104,2.0,3.0,84,0.00,,,1.12,Wunderground v.1.15,2013-06-28 01:15:00,
2013-06-27 21:16:00,80.0,74.7,29.82,East,100,0.0,3.0,84,0.00,,,1.12,Wunderground v.1.15,2013-06-28 01:16:00,
2013-06-27 21:17:00,80.0,74.7,29.82,SE,131,5.0,5.0,84,0.00,,,1.12,Wunderground v.1.15,2013-06-28 01:17:00,
2013-06-27 21:21:00,80.1,74.5,29.82,East,98,0.0,5.0,83,0.00,,,1.12,Wunderground v.1.15,2013-06-28 01:21:00,
2013-06-27 21:22:00,80.1,74.5,29.82,NNE,22,4.0,5.0,83,0.00,,,1.12,Wunderground v.1.15,2013-06-28 01:22:00,
2013-06-27 21:24:00,80.1,74.5,29.82,East,98,2.0,5.0,83,0.00,,,1.12,Wunderground v.1.15,2013-06-28 01:24:00,
2013-06-27 21:26:00,80.1,74.5,29.82,ENE,58,2.0,5.0,83,0.00,,,1.12,Wunderground v.1.15,2013-06-28 01:26:00,
2013-06-27 21:27:00,80.1,74.5,29.82,East,92,1.0,5.0,83,0.00,,,1.12,Wunderground v.1.15,2013-06-28 01:27:00,
2013-06-27 21:28:00,80.1,74.5,29.82,East,92,0.0,5.0,83,0.00,,,1.12,Wunderground v.1.15,2013-06-28 01:28:00,
2013-06-27 21:30:00,80.2,74.6,29.82,ENE,78,2.0,2.0,83,0.00,,,1.12,Wunderground v.1.15,2013-06-28 01:30:00,
2013-06-27 21:32:00,80.2,74.6,29.82,SSE,153,2.0,4.0,83,0.00,,,1.12,Wunderground v.1.15,2013-06-28 01:32:00,
2013-06-27 21:33:00,80.2,74.6,29.82,East,94,2.0,4.0,83,0.00,,,1.12,Wunderground v.1.15,2013-06-28 01:33:00,
2013-06-27 21:36:00,80.3,74.7,29.82,ESE,120,2.0,4.0,83,0.00,,,1.12,Wunderground v.1.15,2013-06-28 01:36:00,
2013-06-27 21:37:00,80.3,74.3,29.82,ENE,61,1.0,4.0,82,0.00,,,1.12,Wunderground v.1.15,2013-06-28 01:37:00,
2013-06-27 21:38:00,80.3,74.3,29.82,SE,125,1.0,4.0,82,0.00,,,1.12,Wunderground v.1.15,2013-06-28 01:38:00,
2013-06-27 21:39:00,80.3,74.7,29.82,North,5,0.0,4.0,83,0.00,,,1.12,Wunderground v.1.15,2013-06-28 01:39:00,
2013-06-27 21:42:00,80.2,74.6,29.83,ENE,58,2.0,2.0,83,0.00,,,1.12,Wunderground v.1.15,2013-06-28 01:42:00,
2013-06-27 21:43:00,80.2,74.6,29.82,East,94,2.0,4.0,83,0.00,,,1.12,Wunderground v.1.15,2013-06-28 01:43:00,
2013-06-27 21:44:00,80.2,74.6,29.83,SE,142,1.0,4.0,83,0.00,,,1.12,Wunderground v.1.15,2013-06-28 01:44:00,
2013-06-27 21:47:00,80.1,74.5,29.83,East,94,1.0,4.0,83,0.00,,,1.12,Wunderground v.1.15,2013-06-28 01:47:00,
2013-06-27 21:49:00,80.1,74.5,29.83,ENE,67,1.0,4.0,83,0.00,,,1.12,Wunderground v.1.15,2013-06-28 01:49:00,
2013-06-27 21:52:00,80.0,74.4,29.83,ENE,68,0.0,2.0,83,0.00,,,1.12,Wunderground v.1.15,2013-06-28 01:52:00,
2013-06-27 21:54:00,80.0,74.4,29.83,ESE,104,0.0,2.0,83,0.00,,,1.12,Wunderground v.1.15,2013-06-28 01:54:00,
2013-06-27 21:55:00,79.9,74.3,29.83,ESE,104,0.0,2.0,83,0.00,,,1.12,Wunderground v.1.15,2013-06-28 01:55:00,
2013-06-27 21:58:00,79.8,74.5,29.83,ESE,104,0.0,2.0,84,0.00,,,1.12,Wunderground v.1.15,2013-06-28 01:58:00,
2013-06-27 21:59:00,79.7,74.4,29.83,ESE,104,0.0,2.0,84,0.00,,,1.12,Wunderground v.1.15,2013-06-28 01:59:00,
2013-06-27 22:00:00,79.7,74.4,29.83,ESE,104,0.0,0.0,84,0.00,,,1.12,Wunderground v.1.15,2013-06-28 02:00:00,
2013-06-27 22:01:00,79.7,74.4,29.83,ESE,104,0.0,1.0,84,0.00,,,1.12,Wunderground v.1.15,2013-06-28 02:01:00,
2013-06-27 22:03:00,79.6,74.3,29.83,ESE,104,0.0,1.0,84,0.00,,,1.12,Wunderground v.1.15,2013-06-28 02:03:00,
2013-06-27 22:05:00,79.5,74.2,29.83,North,350,0.0,1.0,84,0.00,,,1.12,Wunderground v.1.15,2013-06-28 02:05:00,
2013-06-27 22:08:00,79.5,74.2,29.83,ENE,58,1.0,1.0,84,0.00,,,1.12,Wunderground v.1.15,2013-06-28 02:08:00,
2013-06-27 22:10:00,79.5,74.2,29.83,East,79,1.0,1.0,84,0.00,,,1.12,Wunderground v.1.15,2013-06-28 02:10:00,
2013-06-27 22:13:00,79.4,74.1,29.83,NNE,32,1.0,1.0,84,0.00,,,1.12,Wunderground v.1.15,2013-06-28 02:13:00,
2013-06-27 22:15:00,79.4,74.5,29.83,NE,36,0.0,1.0,85,0.00,,,1.12,Wunderground v.1.15,2013-06-28 02:15:00,
2013-06-27 22:16:00,79.4,74.5,29.83,NNE,12,2.0,2.0,85,0.00,,,1.12,Wunderground v.1.15,2013-06-28 02:16:00,
2013-06-27 22:19:00,79.3,74.4,29.83,North,5,0.0,2.0,85,0.00,,,1.12,Wunderground v.1.15,2013-06-28 02:19:00,
2013-06-27 22:20:00,79.3,74.4,29.83,North,5,0.0,1.0,85,0.00,,,1.12,Wunderground v.1.15,2013-06-28 02:20:00,
2013-06-27 22:21:00,79.3,74.4,29.83,North,5,0.0,1.0,85,0.00,,,1.12,Wunderground v.1.15,2013-06-28 02:21:00,
2013-06-27 22:25:00,79.2,74.3,29.83,East,94,0.0,2.0,85,0.00,,,1.12,Wunderground v.1.15,2013-06-28 02:25:00,
2013-06-27 22:26:00,79.2,74.3,29.83,East,101,0.0,2.0,85,0.00,,,1.12,Wunderground v.1.15,2013-06-28 02:26:00,
2013-06-27 22:28:00,79.1,74.2,29.83,East,101,0.0,2.0,85,0.00,,,1.12,Wunderground v.1.15,2013-06-28 02:28:00,
2013-06-27 22:31:00,79.0,74.1,29.83,East,101,0.0,1.0,85,0.00,,,1.12,Wunderground v.1.15,2013-06-28 02:31:00,
2013-06-27 22:33:00,79.0,74.1,29.83,ESE,102,0.0,1.0,85,0.00,,,1.12,Wunderground v.1.15,2013-06-28 02:33:00,
2013-06-27 22:37:00,78.9,74.4,29.83,ENE,58,1.0,1.0,86,0.00,,,1.12,Wunderground v.1.15,2013-06-28 02:37:00,
2013-06-27 22:39:00,78.8,74.3,29.83,NE,55,0.0,2.0,86,0.00,,,1.12,Wunderground v.1.15,2013-06-28 02:39:00,
2013-06-27 22:42:00,78.6,74.4,29.83,NE,56,0.0,0.0,87,0.00,,,1.12,Wunderground v.1.15,2013-06-28 02:42:00,
2013-06-27 22:44:00,78.4,74.2,29.83,NE,56,0.0,0.0,87,0.00,,,1.12,Wunderground v.1.15,2013-06-28 02:44:00,
2013-06-27 22:47:00,78.3,74.1,29.83,ENE,58,0.0,0.0,87,0.00,,,1.12,Wunderground v.1.15,2013-06-28 02:47:00,
2013-06-27 22:48:00,78.3,74.1,29.83,ENE,58,0.0,0.0,87,0.00,,,1.12,Wunderground v.1.15,2013-06-28 02:48:00,
2013-06-27 22:50:00,78.2,74.0,29.83,ENE,58,0.0,0.0,87,0.00,,,1.12,Wunderground v.1.15,2013-06-28 02:50:00,
2013-06-27 22:52:00,78.1,73.9,29.83,ENE,58,0.0,0.0,87,0.00,,,1.12,Wunderground v.1.15,2013-06-28 02:52:00,
2013-06-27 22:53:00,78.1,73.9,29.83,ENE,58,0.0,0.0,87,0.00,,,1.12,Wunderground v.1.15,2013-06-28 02:53:00,
2013-06-27 22:54:00,78.1,73.9,29.83,ENE,58,0.0,0.0,87,0.00,,,1.12,Wunderground v.1.15,2013-06-28 02:54:00,
2013-06-27 22:56:00,78.1,73.9,29.83,ENE,58,0.0,0.0,87,0.00,,,1.12,Wunderground v.1.15,2013-06-28 02:56:00,
2013-06-27 22:58:00,78.1,73.9,29.83,ENE,58,0.0,0.0,87,0.00,,,1.12,Wunderground v.1.15,2013-06-28 02:58:00,
2013-06-27 22:59:00,78.0,74.2,29.83,ENE,58,0.0,0.0,88,0.00,,,1.12,Wunderground v.1.15,2013-06-28 02:59:00,
2013-06-27 23:02:00,78.0,74.2,29.84,ENE,58,0.0,0.0,88,0.00,,,1.12,Wunderground v.1.15,2013-06-28 03:02:00,
2013-06-27 23:03:00,77.9,74.1,29.83,ENE,58,0.0,0.0,88,0.00,,,1.12,Wunderground v.1.15,2013-06-28 03:03:00,
2013-06-27 23:04:00,77.9,74.1,29.83,ENE,58,0.0,0.0,88,0.00,,,1.12,Wunderground v.1.15,2013-06-28 03:04:00,
2013-06-27 23:08:00,77.7,73.9,29.84,ENE,58,1.0,1.0,88,0.00,,,1.12,Wunderground v.1.15,2013-06-28 03:08:00,
2013-06-27 23:09:00,77.7,73.9,29.84,ENE,58,0.0,1.0,88,0.00,,,1.12,Wunderground v.1.15,2013-06-28 03:09:00,
2013-06-27 23:10:00,77.6,73.8,29.84,ENE,58,1.0,1.0,88,0.00,,,1.12,Wunderground v.1.15,2013-06-28 03:10:00,
2013-06-27 23:11:00,77.6,74.1,29.84,ENE,58,0.0,0.0,89,0.00,,,1.12,Wunderground v.1.15,2013-06-28 03:11:00,
2013-06-27 23:14:00,77.5,74.0,29.84,South,174,0.0,1.0,89,0.00,,,1.12,Wunderground v.1.15,2013-06-28 03:14:00,
2013-06-27 23:15:00,77.5,74.0,29.84,South,175,0.0,1.0,89,0.00,,,1.12,Wunderground v.1.15,2013-06-28 03:15:00,
2013-06-27 23:16:00,77.5,74.0,29.84,South,174,0.0,1.0,89,0.00,,,1.12,Wunderground v.1.15,2013-06-28 03:16:00,
2013-06-27 23:19:00,77.4,73.9,29.84,SSE,162,0.0,1.0,89,0.00,,,1.12,Wunderground v.1.15,2013-06-28 03:19:00,
2013-06-27 23:20:00,77.4,73.9,29.84,SSE,162,0.0,0.0,89,0.00,,,1.12,Wunderground v.1.15,2013-06-28 03:20:00,
2013-06-27 23:21:00,77.4,73.9,29.84,SSE,162,0.0,0.0,89,0.00,,,1.12,Wunderground v.1.15,2013-06-28 03:21:00,
2013-06-27 23:25:00,77.3,73.8,29.84,SSE,162,0.0,0.0,89,0.00,,,1.12,Wunderground v.1.15,2013-06-28 03:25:00,
2013-06-27 23:26:00,77.3,73.8,29.84,SSE,162,0.0,0.0,89,0.00,,,1.12,Wunderground v.1.15,2013-06-28 03:26:00,
2013-06-27 23:30:00,77.1,73.9,29.83,SSE,162,0.0,0.0,90,0.00,,,1.12,Wunderground v.1.15,2013-06-28 03:30:00,
2013-06-27 23:31:00,77.1,73.9,29.83,SSE,162,0.0,0.0,90,0.00,,,1.12,Wunderground v.1.15,2013-06-28 03:31:00,
2013-06-27 23:32:00,77.1,73.9,29.83,SSE,162,0.0,0.0,90,0.00,,,1.12,Wunderground v.1.15,2013-06-28 03:32:00,
2013-06-27 23:35:00,77.0,73.8,29.84,SSE,162,0.0,0.0,90,0.00,,,1.12,Wunderground v.1.15,2013-06-28 03:35:00,
2013-06-27 23:36:00,76.9,73.7,29.84,SSE,162,0.0,0.0,90,0.00,,,1.12,Wunderground v.1.15,2013-06-28 03:36:00,
2013-06-27 23:37:00,76.9,73.7,29.84,SSE,162,0.0,0.0,90,0.00,,,1.12,Wunderground v.1.15,2013-06-28 03:37:00,
2013-06-27 23:41:00,76.5,73.7,29.84,SSE,162,0.0,0.0,91,0.00,,,1.12,Wunderground v.1.15,2013-06-28 03:41:00,
2013-06-27 23:42:00,76.5,73.7,29.84,SSE,162,0.0,0.0,91,0.00,,,1.12,Wunderground v.1.15,2013-06-28 03:42:00,
2013-06-27 23:47:00,76.2,73.4,29.84,SSE,163,0.0,0.0,91,0.00,,,1.12,Wunderground v.1.15,2013-06-28 03:47:00,
2013-06-27 23:48:00,76.2,73.4,29.84,SSE,163,0.0,1.0,91,0.00,,,1.12,Wunderground v.1.15,2013-06-28 03:48:00,
2013-06-27 23:52:00,76.3,73.5,29.84,SE,136,0.0,0.0,91,0.00,,,1.12,Wunderground v.1.15,2013-06-28 03:52:00,
2013-06-27 23:54:00,76.4,73.6,29.84,SE,137,0.0,0.0,91,0.00,,,1.12,Wunderground v.1.15,2013-06-28 03:54:00,
2013-06-27 23:58:00,76.5,73.3,29.84,ENE,58,0.0,2.0,90,0.00,,,1.12,Wunderground v.1.15,2013-06-28 03:58:00,